UAL791 UMMS-PGUM
Flight info
| Callsign | UAL791 |
|---|---|
| Flight time | 12h 37m |
| Altitude | 31000 |
| Route | AGNEF2G AGNEF N869 RANTO T753 AGBIR T783 BALOB N155 RENTU/K0900F330 N155 NIPRA T631 SOREB B718 SOTOM A920 UBORA/K0893F350 A920 KTN A91 AGINO A810 TELOK/K0902F351 A345 MANLI/K0907S1070 A345 HLD B451 UGABI W39 YNJ R224 VASRO/K0902F350 M825 KANSU/N0488F360 B332 IGRAS/N0492F350 Y332 MIHOU Y39 OYE V28 ITE/N0490F360 V55 NORAN/N0487F370 V55 KEC A597 WUVEN |
| Aircraft | B77W/H-SDE1E2E3FGHIJ2J3J4J5M1RWXY/LB1D1 |
Departure
| Time | 2026-05-06 17:20 |
|---|---|
| Airport | Minsk National Airport (UMMS) |
Arrival
| Time | 2026-05-07 05:57 |
|---|---|
| Airport | Antonio B. Won Pat International Airport (PGUM) |
| Time | Latitude | Longitude | Altitude | Speed | Heading |
|---|---|---|---|---|---|
| 2026-05-06 16:58 | 53.88902 | 28.03596 | 640 ft | 0 kts | 314° |
| 2026-05-06 17:07 | 53.88897 | 28.03603 | 644 ft | 3 kts | 314° |
| 2026-05-06 17:08 | 53.88884 | 28.03626 | 640 ft | 3 kts | 314° |
| 2026-05-06 17:08 | 53.88877 | 28.03638 | 644 ft | 3 kts | 314° |
| 2026-05-06 17:08 | 53.88872 | 28.03647 | 643 ft | 0 kts | 314° |
| 2026-05-06 17:13 | 53.88874 | 28.03643 | 643 ft | 3 kts | 315° |
| 2026-05-06 17:13 | 53.88911 | 28.03654 | 645 ft | 10 kts | 28° |
| 2026-05-06 17:14 | 53.88921 | 28.03812 | 645 ft | 20 kts | 121° |
| 2026-05-06 17:14 | 53.88824 | 28.04023 | 643 ft | 16 kts | 118° |
| 2026-05-06 17:14 | 53.88871 | 28.04229 | 642 ft | 24 kts | 53° |
| 2026-05-06 17:14 | 53.89005 | 28.04484 | 643 ft | 33 kts | 48° |
| 2026-05-06 17:15 | 53.89169 | 28.04813 | 645 ft | 37 kts | 49° |
| 2026-05-06 17:15 | 53.89260 | 28.04825 | 642 ft | 13 kts | 319° |
| 2026-05-06 17:15 | 53.89358 | 28.04680 | 646 ft | 23 kts | 319° |
| 2026-05-06 17:15 | 53.89500 | 28.04459 | 648 ft | 32 kts | 311° |
| 2026-05-06 17:16 | 53.89682 | 28.04167 | 645 ft | 40 kts | 319° |
| 2026-05-06 17:16 | 53.89908 | 28.03829 | 645 ft | 47 kts | 318° |
| 2026-05-06 17:16 | 53.90167 | 28.03442 | 645 ft | 52 kts | 319° |
| 2026-05-06 17:16 | 53.90342 | 28.03183 | 644 ft | 23 kts | 319° |
| 2026-05-06 17:17 | 53.90420 | 28.03157 | 650 ft | 0 kts | 39° |
| 2026-05-06 17:18 | 53.90421 | 28.03159 | 650 ft | 2 kts | 39° |
| 2026-05-06 17:18 | 53.90455 | 28.03205 | 647 ft | 14 kts | 39° |
| 2026-05-06 17:18 | 53.90491 | 28.03268 | 647 ft | 10 kts | 53° |
| 2026-05-06 17:18 | 53.90477 | 28.03402 | 646 ft | 15 kts | 129° |
| 2026-05-06 17:19 | 53.90424 | 28.03480 | 647 ft | 0 kts | 139° |
| 2026-05-06 17:19 | 53.90322 | 28.03632 | 647 ft | 58 kts | 139° |
| 2026-05-06 17:20 | 53.89797 | 28.04411 | 647 ft | 139 kts | 139° |
| 2026-05-06 17:20 | 53.88863 | 28.05742 | 645 ft | 207 kts | 147° |
| 2026-05-06 17:20 | 53.87692 | 28.07206 | 1403 ft | 204 kts | 142° |
| 2026-05-06 17:20 | 53.86614 | 28.08721 | 2250 ft | 209 kts | 141° |
| 2026-05-06 17:21 | 53.85458 | 28.10402 | 2735 ft | 229 kts | 140° |
| 2026-05-06 17:21 | 53.84234 | 28.12302 | 3249 ft | 248 kts | 140° |
| 2026-05-06 17:21 | 53.83073 | 28.14567 | 3803 ft | 264 kts | 117° |
| 2026-05-06 17:21 | 53.82724 | 28.17669 | 4472 ft | 277 kts | 90° |
| 2026-05-06 17:22 | 53.82807 | 28.20987 | 5127 ft | 286 kts | 90° |
| 2026-05-06 17:22 | 53.82880 | 28.24376 | 5901 ft | 291 kts | 91° |
| 2026-05-06 17:22 | 53.82951 | 28.27824 | 6617 ft | 295 kts | 91° |
| 2026-05-06 17:22 | 53.83021 | 28.31316 | 7348 ft | 298 kts | 91° |
| 2026-05-06 17:23 | 53.83089 | 28.34846 | 8037 ft | 301 kts | 91° |
| 2026-05-06 17:23 | 53.83155 | 28.38412 | 8689 ft | 304 kts | 91° |
| 2026-05-06 17:23 | 53.83219 | 28.42008 | 9341 ft | 307 kts | 91° |
| 2026-05-06 17:23 | 53.83283 | 28.45645 | 9803 ft | 311 kts | 91° |
| 2026-05-06 17:24 | 53.83344 | 28.49329 | 9776 ft | 314 kts | 91° |
| 2026-05-06 17:24 | 53.83404 | 28.53022 | 9792 ft | 312 kts | 91° |
| 2026-05-06 17:24 | 53.83503 | 28.56674 | 9771 ft | 309 kts | 82° |
| 2026-05-06 17:24 | 53.84267 | 28.60056 | 9803 ft | 313 kts | 53° |
| 2026-05-06 17:25 | 53.85844 | 28.62581 | 9787 ft | 315 kts | 27° |
| 2026-05-06 17:25 | 53.87877 | 28.63873 | 9789 ft | 311 kts | 7° |
| 2026-05-06 17:25 | 53.90023 | 28.64452 | 9809 ft | 314 kts | 5° |
| 2026-05-06 17:25 | 53.92145 | 28.64984 | 9823 ft | 310 kts | 5° |
| 2026-05-06 17:26 | 53.94272 | 28.65529 | 9931 ft | 306 kts | 5° |
| 2026-05-06 17:26 | 53.96378 | 28.66087 | 10006 ft | 308 kts | 5° |
| 2026-05-06 17:26 | 53.98561 | 28.66673 | 10141 ft | 326 kts | 5° |
| 2026-05-06 17:26 | 54.00876 | 28.67301 | 10317 ft | 347 kts | 6° |
| 2026-05-06 17:27 | 54.03342 | 28.67977 | 10479 ft | 369 kts | 6° |
| 2026-05-06 17:27 | 54.05831 | 28.68665 | 10741 ft | 385 kts | 6° |
| 2026-05-06 17:27 | 54.08502 | 28.69406 | 11307 ft | 394 kts | 6° |
| 2026-05-06 17:27 | 54.11237 | 28.70166 | 11974 ft | 399 kts | 6° |
| 2026-05-06 17:28 | 54.13996 | 28.70932 | 12717 ft | 403 kts | 6° |
| 2026-05-06 17:28 | 54.16768 | 28.71702 | 13488 ft | 406 kts | 5° |
| 2026-05-06 17:28 | 54.19571 | 28.72481 | 14161 ft | 409 kts | 6° |
| 2026-05-06 17:28 | 54.22386 | 28.73264 | 14822 ft | 413 kts | 6° |
| 2026-05-06 17:29 | 54.25247 | 28.74061 | 15489 ft | 416 kts | 6° |
| 2026-05-06 17:29 | 54.28112 | 28.74859 | 16145 ft | 420 kts | 6° |
| 2026-05-06 17:29 | 54.31013 | 28.75668 | 16782 ft | 424 kts | 6° |
| 2026-05-06 17:29 | 54.33938 | 28.76483 | 17435 ft | 427 kts | 6° |
| 2026-05-06 17:30 | 54.36841 | 28.77296 | 18083 ft | 431 kts | 6° |
| 2026-05-06 17:30 | 54.39858 | 28.78142 | 18657 ft | 434 kts | 6° |
| 2026-05-06 17:30 | 54.42801 | 28.78967 | 19217 ft | 437 kts | 6° |
| 2026-05-06 17:30 | 54.45785 | 28.80138 | 19638 ft | 444 kts | 19° |
| 2026-05-06 17:31 | 54.48446 | 28.82908 | 20017 ft | 456 kts | 40° |
| 2026-05-06 17:31 | 54.50538 | 28.87042 | 20586 ft | 461 kts | 58° |
| 2026-05-06 17:31 | 54.52011 | 28.91952 | 21075 ft | 462 kts | 64° |
| 2026-05-06 17:31 | 54.53380 | 28.96988 | 21543 ft | 467 kts | 65° |
| 2026-05-06 17:32 | 54.54752 | 29.02082 | 22062 ft | 470 kts | 64° |
| 2026-05-06 17:32 | 54.56142 | 29.07194 | 22610 ft | 473 kts | 64° |
| 2026-05-06 17:32 | 54.57558 | 29.12334 | 23136 ft | 475 kts | 64° |
| 2026-05-06 17:32 | 54.58987 | 29.17473 | 23577 ft | 479 kts | 64° |
| 2026-05-06 17:33 | 54.60441 | 29.22676 | 24009 ft | 481 kts | 64° |
| 2026-05-06 17:33 | 54.61896 | 29.27885 | 24438 ft | 483 kts | 64° |
| 2026-05-06 17:33 | 54.63358 | 29.33135 | 24864 ft | 486 kts | 64° |
| 2026-05-06 17:33 | 54.64822 | 29.38406 | 25266 ft | 488 kts | 64° |
| 2026-05-06 17:34 | 54.66298 | 29.43710 | 25644 ft | 491 kts | 63° |
| 2026-05-06 17:34 | 54.67951 | 29.48888 | 26015 ft | 494 kts | 57° |
| 2026-05-06 17:34 | 54.69894 | 29.53750 | 26379 ft | 495 kts | 51° |
| 2026-05-06 17:34 | 54.72027 | 29.58465 | 26779 ft | 497 kts | 50° |
| 2026-05-06 17:35 | 54.74181 | 29.63171 | 27139 ft | 500 kts | 50° |
| 2026-05-06 17:35 | 54.76347 | 29.67913 | 27477 ft | 503 kts | 50° |
| 2026-05-06 17:35 | 54.78486 | 29.72631 | 27822 ft | 505 kts | 51° |
| 2026-05-06 17:36 | 54.82838 | 29.82345 | 28496 ft | 509 kts | 51° |
| 2026-05-06 17:36 | 54.84977 | 29.87161 | 28802 ft | 511 kts | 51° |
| 2026-05-06 17:36 | 54.87154 | 29.92077 | 29097 ft | 514 kts | 51° |
| 2026-05-06 17:36 | 54.89337 | 29.97016 | 29369 ft | 516 kts | 51° |
| 2026-05-06 17:37 | 54.91514 | 30.01951 | 29653 ft | 517 kts | 51° |
| 2026-05-06 17:37 | 54.93711 | 30.06940 | 29980 ft | 517 kts | 51° |
| 2026-05-06 17:37 | 54.95889 | 30.11896 | 30323 ft | 516 kts | 51° |
| 2026-05-06 17:37 | 54.98059 | 30.16841 | 30677 ft | 514 kts | 51° |
| 2026-05-06 17:38 | 55.00244 | 30.21829 | 30781 ft | 517 kts | 51° |
| 2026-05-06 17:38 | 55.02425 | 30.26816 | 30873 ft | 519 kts | 51° |
| 2026-05-06 17:38 | 55.04611 | 30.31828 | 31222 ft | 517 kts | 51° |
| 2026-05-06 17:38 | 55.06781 | 30.36814 | 31623 ft | 513 kts | 51° |
| 2026-05-06 17:39 | 55.08931 | 30.41764 | 32006 ft | 511 kts | 51° |
| 2026-05-06 17:39 | 55.11026 | 30.46595 | 32327 ft | 509 kts | 52° |
| 2026-05-06 17:39 | 55.13184 | 30.51582 | 32608 ft | 509 kts | 52° |
| 2026-05-06 17:39 | 55.15307 | 30.56497 | 32860 ft | 508 kts | 52° |
| 2026-05-06 17:40 | 55.17446 | 30.61460 | 33098 ft | 508 kts | 52° |
| 2026-05-06 17:40 | 55.19573 | 30.66406 | 33354 ft | 507 kts | 52° |
| 2026-05-06 17:40 | 55.21692 | 30.71344 | 33655 ft | 506 kts | 52° |
| 2026-05-06 17:40 | 55.23799 | 30.76258 | 33930 ft | 504 kts | 52° |
| 2026-05-06 17:41 | 55.25906 | 30.81184 | 34097 ft | 505 kts | 52° |
| 2026-05-06 17:41 | 55.27942 | 30.86210 | 34180 ft | 507 kts | 56° |
| 2026-05-06 17:41 | 55.31295 | 30.97082 | 34387 ft | 510 kts | 63° |
| 2026-05-06 17:42 | 55.32871 | 31.02697 | 34503 ft | 511 kts | 63° |
| 2026-05-06 17:42 | 55.34434 | 31.08303 | 34588 ft | 513 kts | 63° |
| 2026-05-06 17:42 | 55.36010 | 31.13930 | 34696 ft | 514 kts | 63° |
| 2026-05-06 17:42 | 55.37600 | 31.19576 | 34790 ft | 514 kts | 63° |
| 2026-05-06 17:43 | 55.40798 | 31.30869 | 34972 ft | 516 kts | 63° |
| 2026-05-06 17:43 | 55.44000 | 31.42181 | 35136 ft | 518 kts | 63° |
| 2026-05-06 17:44 | 55.47189 | 31.53503 | 35279 ft | 519 kts | 63° |
| 2026-05-06 17:44 | 55.50393 | 31.64950 | 35436 ft | 520 kts | 63° |
| 2026-05-06 17:45 | 55.53587 | 31.76416 | 35539 ft | 522 kts | 63° |
| 2026-05-06 17:45 | 55.56771 | 31.87909 | 35658 ft | 523 kts | 63° |
| 2026-05-06 17:46 | 55.59977 | 31.99535 | 35756 ft | 524 kts | 64° |
| 2026-05-06 17:46 | 55.63139 | 32.11060 | 35851 ft | 525 kts | 64° |
| 2026-05-06 17:47 | 55.66322 | 32.22719 | 35924 ft | 526 kts | 64° |
| 2026-05-06 17:47 | 55.69502 | 32.34432 | 36023 ft | 526 kts | 64° |
| 2026-05-06 17:48 | 55.72667 | 32.46143 | 36081 ft | 527 kts | 64° |
| 2026-05-06 17:48 | 55.75823 | 32.57889 | 36151 ft | 528 kts | 64° |
| 2026-05-06 17:49 | 55.78982 | 32.69701 | 36212 ft | 528 kts | 64° |
| 2026-05-06 17:49 | 55.81589 | 32.79499 | 36276 ft | 529 kts | 64° |
| 2026-05-06 17:50 | 55.85246 | 32.93286 | 36326 ft | 529 kts | 63° |
| 2026-05-06 17:50 | 55.88666 | 33.04853 | 36389 ft | 529 kts | 60° |
| 2026-05-06 17:51 | 55.91640 | 33.14425 | 36421 ft | 529 kts | 60° |
| 2026-05-06 17:51 | 55.95154 | 33.25787 | 36466 ft | 529 kts | 60° |
| 2026-05-06 17:52 | 55.98655 | 33.37290 | 36520 ft | 530 kts | 60° |
| 2026-05-06 17:52 | 56.02111 | 33.48756 | 36566 ft | 530 kts | 61° |
| 2026-05-06 17:53 | 56.05593 | 33.60365 | 36591 ft | 530 kts | 61° |
| 2026-05-06 17:53 | 56.08968 | 33.71666 | 36624 ft | 530 kts | 61° |
| 2026-05-06 17:54 | 56.12438 | 33.83334 | 36645 ft | 531 kts | 61° |
| 2026-05-06 17:54 | 56.15901 | 33.95038 | 36693 ft | 531 kts | 61° |
| 2026-05-06 17:55 | 56.19347 | 34.06746 | 36719 ft | 531 kts | 61° |
| 2026-05-06 17:55 | 56.22794 | 34.18516 | 36765 ft | 531 kts | 61° |
| 2026-05-06 17:56 | 56.26223 | 34.30284 | 36794 ft | 531 kts | 61° |
| 2026-05-06 17:56 | 56.29643 | 34.42075 | 36833 ft | 531 kts | 61° |
| 2026-05-06 17:57 | 56.33053 | 34.53889 | 36888 ft | 531 kts | 62° |
| 2026-05-06 17:57 | 56.36449 | 34.65709 | 36911 ft | 531 kts | 62° |
| 2026-05-06 17:58 | 56.39803 | 34.77441 | 36941 ft | 531 kts | 62° |
| 2026-05-06 17:58 | 56.43191 | 34.89348 | 36966 ft | 531 kts | 62° |
| 2026-05-06 17:59 | 56.46530 | 35.01144 | 37007 ft | 531 kts | 62° |
| 2026-05-06 17:59 | 56.49883 | 35.13065 | 37028 ft | 531 kts | 62° |
| 2026-05-06 18:00 | 56.53233 | 35.25041 | 37157 ft | 527 kts | 62° |
| 2026-05-06 18:00 | 56.56523 | 35.36849 | 37235 ft | 524 kts | 62° |
| 2026-05-06 18:01 | 56.59787 | 35.48687 | 37235 ft | 523 kts | 63° |
| 2026-05-06 18:01 | 56.63011 | 35.60529 | 37233 ft | 522 kts | 62° |
| 2026-05-06 18:02 | 56.66270 | 35.72341 | 37235 ft | 522 kts | 62° |
| 2026-05-06 18:02 | 56.69502 | 35.84142 | 37237 ft | 521 kts | 63° |
| 2026-05-06 18:03 | 56.72683 | 35.96017 | 37239 ft | 521 kts | 63° |
| 2026-05-06 18:03 | 56.74280 | 36.01985 | 37041 ft | 524 kts | 63° |
| 2026-05-06 18:03 | 56.75884 | 36.07926 | 36624 ft | 528 kts | 62° |
| 2026-05-06 18:04 | 56.77516 | 36.13942 | 36347 ft | 529 kts | 62° |
| 2026-05-06 18:04 | 56.79155 | 36.19990 | 36358 ft | 528 kts | 62° |
| 2026-05-06 18:04 | 56.82378 | 36.31966 | 36343 ft | 529 kts | 63° |
| 2026-05-06 18:05 | 56.85618 | 36.44141 | 36340 ft | 529 kts | 63° |
| 2026-05-06 18:05 | 56.88805 | 36.56175 | 36339 ft | 529 kts | 63° |
| 2026-05-06 18:06 | 56.92000 | 36.68299 | 36341 ft | 529 kts | 63° |
| 2026-05-06 18:06 | 56.95187 | 36.80447 | 36336 ft | 529 kts | 63° |
| 2026-05-06 18:07 | 56.98361 | 36.92632 | 36338 ft | 529 kts | 63° |
| 2026-05-06 18:07 | 57.01500 | 37.04790 | 36335 ft | 529 kts | 63° |
| 2026-05-06 18:08 | 57.04650 | 37.17061 | 36335 ft | 529 kts | 63° |
| 2026-05-06 18:08 | 57.07785 | 37.29330 | 36335 ft | 529 kts | 63° |
| 2026-05-06 18:09 | 57.10900 | 37.41589 | 36335 ft | 529 kts | 63° |
| 2026-05-06 18:09 | 57.13980 | 37.53774 | 36341 ft | 529 kts | 63° |
| 2026-05-06 18:10 | 57.17055 | 37.66197 | 36319 ft | 530 kts | 66° |
| 2026-05-06 18:10 | 57.19705 | 37.78891 | 36322 ft | 531 kts | 68° |
| 2026-05-06 18:11 | 57.22249 | 37.91605 | 36344 ft | 531 kts | 68° |
| 2026-05-06 18:11 | 57.24830 | 38.04386 | 36329 ft | 531 kts | 68° |
| 2026-05-06 18:12 | 57.27418 | 38.17164 | 36328 ft | 531 kts | 68° |
| 2026-05-06 18:12 | 57.29993 | 38.29951 | 36336 ft | 531 kts | 68° |
| 2026-05-06 18:13 | 57.32557 | 38.42783 | 36334 ft | 531 kts | 68° |
| 2026-05-06 18:13 | 57.35105 | 38.55600 | 36338 ft | 531 kts | 68° |
| 2026-05-06 18:14 | 57.37653 | 38.68494 | 36352 ft | 532 kts | 68° |
| 2026-05-06 18:14 | 57.40183 | 38.81382 | 36351 ft | 532 kts | 68° |
| 2026-05-06 18:15 | 57.42699 | 38.94291 | 36351 ft | 532 kts | 68° |
| 2026-05-06 18:15 | 57.45184 | 39.07114 | 36351 ft | 532 kts | 69° |
| 2026-05-06 18:16 | 57.47940 | 39.19836 | 36343 ft | 529 kts | 58° |
| 2026-05-06 18:16 | 57.52188 | 39.30858 | 36356 ft | 522 kts | 44° |
| 2026-05-06 18:17 | 57.57550 | 39.39892 | 36360 ft | 518 kts | 37° |
| 2026-05-06 18:17 | 57.63040 | 39.48620 | 36355 ft | 519 kts | 37° |
| 2026-05-06 18:18 | 57.68493 | 39.57492 | 36349 ft | 520 kts | 37° |
| 2026-05-06 18:18 | 57.73926 | 39.66483 | 36351 ft | 521 kts | 38° |
| 2026-05-06 18:19 | 57.79316 | 39.75445 | 36349 ft | 522 kts | 38° |
| 2026-05-06 18:19 | 57.84748 | 39.84496 | 36344 ft | 522 kts | 38° |
| 2026-05-06 18:20 | 57.90174 | 39.93593 | 36356 ft | 523 kts | 38° |
| 2026-05-06 18:20 | 57.95585 | 40.02768 | 36343 ft | 523 kts | 38° |
| 2026-05-06 18:21 | 58.00983 | 40.11962 | 36348 ft | 524 kts | 38° |
| 2026-05-06 18:21 | 58.06396 | 40.21213 | 36348 ft | 524 kts | 38° |
| 2026-05-06 18:22 | 58.11756 | 40.30404 | 36344 ft | 524 kts | 38° |
| 2026-05-06 18:22 | 58.16874 | 40.40433 | 36355 ft | 529 kts | 48° |
| 2026-05-06 18:23 | 58.21022 | 40.52066 | 36350 ft | 534 kts | 56° |
| 2026-05-06 18:23 | 58.24744 | 40.64264 | 36347 ft | 535 kts | 57° |
| 2026-05-06 18:24 | 58.28466 | 40.76515 | 36347 ft | 535 kts | 57° |
| 2026-05-06 18:24 | 58.32215 | 40.88728 | 36344 ft | 535 kts | 57° |
| 2026-05-06 18:25 | 58.35958 | 41.00900 | 36340 ft | 536 kts | 57° |
| 2026-05-06 18:25 | 58.39717 | 41.13186 | 36340 ft | 536 kts | 57° |
| 2026-05-06 18:26 | 58.43459 | 41.25499 | 36338 ft | 537 kts | 57° |
| 2026-05-06 18:26 | 58.47189 | 41.37845 | 36336 ft | 537 kts | 57° |
| 2026-05-06 18:27 | 58.50924 | 41.50270 | 36337 ft | 538 kts | 57° |
| 2026-05-06 18:27 | 58.54640 | 41.62699 | 36345 ft | 538 kts | 57° |
| 2026-05-06 18:28 | 58.57728 | 41.73074 | 36341 ft | 539 kts | 57° |
| 2026-05-06 18:28 | 58.61433 | 41.85587 | 36338 ft | 540 kts | 57° |
| 2026-05-06 18:29 | 58.65128 | 41.98138 | 36333 ft | 540 kts | 57° |
| 2026-05-06 18:29 | 58.68814 | 42.10722 | 36332 ft | 541 kts | 58° |
| 2026-05-06 18:30 | 58.72489 | 42.23341 | 36333 ft | 541 kts | 58° |
| 2026-05-06 18:30 | 58.76167 | 42.36031 | 36321 ft | 542 kts | 58° |
| 2026-05-06 18:31 | 58.79800 | 42.48632 | 36344 ft | 542 kts | 58° |
| 2026-05-06 18:31 | 58.83463 | 42.61379 | 36336 ft | 542 kts | 58° |
| 2026-05-06 18:32 | 58.87112 | 42.74139 | 36313 ft | 543 kts | 58° |
| 2026-05-06 18:32 | 58.90754 | 42.86951 | 36324 ft | 543 kts | 58° |
| 2026-05-06 18:33 | 58.94380 | 42.99781 | 36317 ft | 543 kts | 58° |
| 2026-05-06 18:33 | 58.97980 | 43.12594 | 36320 ft | 544 kts | 59° |
| 2026-05-06 18:34 | 59.01593 | 43.25524 | 36318 ft | 544 kts | 59° |
| 2026-05-06 18:34 | 59.05165 | 43.38378 | 36315 ft | 544 kts | 59° |
| 2026-05-06 18:35 | 59.08768 | 43.51421 | 36318 ft | 544 kts | 59° |
| 2026-05-06 18:35 | 59.12342 | 43.64430 | 36314 ft | 544 kts | 59° |
| 2026-05-06 18:36 | 59.15884 | 43.77397 | 36314 ft | 545 kts | 59° |
| 2026-05-06 18:36 | 59.19430 | 43.90454 | 36309 ft | 545 kts | 59° |
| 2026-05-06 18:37 | 59.22964 | 44.03542 | 36309 ft | 545 kts | 59° |
| 2026-05-06 18:37 | 59.26410 | 44.16597 | 36312 ft | 546 kts | 63° |
| 2026-05-06 18:38 | 59.29235 | 44.30482 | 36310 ft | 548 kts | 68° |
| 2026-05-06 18:38 | 59.31872 | 44.44479 | 36307 ft | 548 kts | 68° |
| 2026-05-06 18:39 | 59.34531 | 44.58480 | 36302 ft | 548 kts | 67° |
| 2026-05-06 18:40 | 59.38543 | 44.79430 | 36304 ft | 548 kts | 68° |
| 2026-05-06 18:40 | 59.41219 | 44.93516 | 36298 ft | 548 kts | 68° |
| 2026-05-06 18:41 | 59.43866 | 45.07571 | 36298 ft | 549 kts | 68° |
| 2026-05-06 18:41 | 59.46503 | 45.21682 | 36297 ft | 549 kts | 68° |
| 2026-05-06 18:42 | 59.49120 | 45.35787 | 36293 ft | 549 kts | 68° |
| 2026-05-06 18:42 | 59.51724 | 45.49916 | 36292 ft | 549 kts | 68° |
| 2026-05-06 18:43 | 59.54405 | 45.63808 | 36292 ft | 548 kts | 66° |
| 2026-05-06 18:43 | 59.57235 | 45.77960 | 36291 ft | 548 kts | 66° |
| 2026-05-06 18:44 | 59.59982 | 45.91852 | 36296 ft | 548 kts | 66° |
| 2026-05-06 18:44 | 59.62725 | 46.05958 | 36290 ft | 549 kts | 67° |
| 2026-05-06 18:45 | 59.65372 | 46.19714 | 36287 ft | 549 kts | 67° |
| 2026-05-06 18:45 | 59.66163 | 46.23843 | 36287 ft | 549 kts | 67° |
| 2026-05-06 18:46 | 59.68864 | 46.37995 | 36285 ft | 549 kts | 67° |
| 2026-05-06 18:46 | 59.71550 | 46.52162 | 36283 ft | 549 kts | 67° |
| 2026-05-06 18:47 | 59.74222 | 46.66359 | 36283 ft | 550 kts | 68° |
| 2026-05-06 18:47 | 59.76885 | 46.80613 | 36270 ft | 550 kts | 68° |
| 2026-05-06 18:48 | 59.79517 | 46.94806 | 36284 ft | 551 kts | 68° |
| 2026-05-06 18:48 | 59.82150 | 47.09098 | 36274 ft | 551 kts | 68° |
| 2026-05-06 18:49 | 59.84773 | 47.23437 | 36270 ft | 551 kts | 68° |
| 2026-05-06 18:49 | 59.87381 | 47.37765 | 36262 ft | 552 kts | 68° |
| 2026-05-06 18:50 | 59.89986 | 47.52176 | 36265 ft | 552 kts | 68° |
| 2026-05-06 18:50 | 59.92568 | 47.66578 | 36262 ft | 552 kts | 69° |
| 2026-05-06 18:51 | 59.95141 | 47.81034 | 36262 ft | 552 kts | 69° |
| 2026-05-06 18:51 | 59.97698 | 47.95491 | 36263 ft | 552 kts | 69° |
| 2026-05-06 18:52 | 60.00229 | 48.09857 | 36256 ft | 552 kts | 69° |
| 2026-05-06 18:52 | 60.02775 | 48.24416 | 36257 ft | 552 kts | 69° |
| 2026-05-06 18:53 | 60.05291 | 48.38918 | 36251 ft | 552 kts | 69° |
| 2026-05-06 18:53 | 60.07785 | 48.53418 | 36253 ft | 552 kts | 69° |
| 2026-05-06 18:54 | 60.10275 | 48.68008 | 36253 ft | 552 kts | 70° |
| 2026-05-06 18:54 | 60.12745 | 48.82594 | 36251 ft | 552 kts | 70° |
| 2026-05-06 18:55 | 60.15196 | 48.97187 | 36249 ft | 552 kts | 70° |
| 2026-05-06 18:55 | 60.17634 | 49.11812 | 36246 ft | 552 kts | 70° |
| 2026-05-06 18:56 | 60.20047 | 49.26449 | 36239 ft | 552 kts | 71° |
| 2026-05-06 18:56 | 60.22310 | 49.41203 | 36236 ft | 552 kts | 72° |
| 2026-05-06 18:57 | 60.24490 | 49.55954 | 36230 ft | 553 kts | 72° |
| 2026-05-06 18:57 | 60.26685 | 49.70805 | 36231 ft | 553 kts | 72° |
| 2026-05-06 18:58 | 60.28881 | 49.85663 | 36223 ft | 553 kts | 72° |
| 2026-05-06 18:58 | 60.31056 | 50.00477 | 36218 ft | 553 kts | 72° |
| 2026-05-06 18:59 | 60.33235 | 50.15465 | 36214 ft | 553 kts | 73° |
| 2026-05-06 18:59 | 60.35382 | 50.30380 | 36214 ft | 554 kts | 73° |
| 2026-05-06 19:00 | 60.37507 | 50.45276 | 36210 ft | 554 kts | 73° |
| 2026-05-06 19:00 | 60.39624 | 50.60254 | 36203 ft | 554 kts | 73° |
| 2026-05-06 19:01 | 60.41725 | 50.75263 | 36203 ft | 554 kts | 73° |
| 2026-05-06 19:01 | 60.43807 | 50.90265 | 36191 ft | 554 kts | 74° |
| 2026-05-06 19:02 | 60.45873 | 51.05294 | 36199 ft | 553 kts | 74° |
| 2026-05-06 19:02 | 60.47920 | 51.20331 | 36192 ft | 553 kts | 74° |
| 2026-05-06 19:03 | 60.49930 | 51.35336 | 36183 ft | 553 kts | 75° |
| 2026-05-06 19:03 | 60.51944 | 51.50510 | 36180 ft | 553 kts | 75° |
| 2026-05-06 19:04 | 60.53915 | 51.65474 | 36180 ft | 552 kts | 75° |
| 2026-05-06 19:04 | 60.55892 | 51.80547 | 36176 ft | 552 kts | 75° |
| 2026-05-06 19:05 | 60.57815 | 51.95181 | 36183 ft | 551 kts | 75° |
| 2026-05-06 19:05 | 60.59779 | 52.10258 | 36169 ft | 551 kts | 75° |
| 2026-05-06 19:06 | 60.61722 | 52.25354 | 36164 ft | 550 kts | 75° |
| 2026-05-06 19:06 | 60.63644 | 52.40449 | 36163 ft | 550 kts | 75° |
| 2026-05-06 19:07 | 60.65546 | 52.55545 | 36161 ft | 550 kts | 75° |
| 2026-05-06 19:07 | 60.67434 | 52.70671 | 36155 ft | 550 kts | 75° |
| 2026-05-06 19:08 | 60.69300 | 52.85783 | 36152 ft | 549 kts | 76° |
| 2026-05-06 19:08 | 60.70843 | 52.98391 | 36152 ft | 549 kts | 76° |
| 2026-05-06 19:09 | 60.72987 | 53.16095 | 36143 ft | 549 kts | 76° |
| 2026-05-06 19:09 | 60.74495 | 53.28686 | 36139 ft | 549 kts | 76° |
| 2026-05-06 19:10 | 60.76170 | 53.42792 | 36142 ft | 549 kts | 76° |
| 2026-05-06 19:10 | 60.77771 | 53.56396 | 36133 ft | 549 kts | 76° |
| 2026-05-06 19:11 | 60.79517 | 53.71206 | 36137 ft | 549 kts | 76° |
| 2026-05-06 19:11 | 60.81179 | 53.84998 | 36128 ft | 548 kts | 76° |
| 2026-05-06 19:12 | 60.82944 | 53.99694 | 36126 ft | 548 kts | 76° |
| 2026-05-06 19:12 | 60.84735 | 54.14838 | 36122 ft | 548 kts | 76° |
| 2026-05-06 19:13 | 60.86499 | 54.29973 | 36110 ft | 548 kts | 76° |
| 2026-05-06 19:13 | 60.88255 | 54.45214 | 36107 ft | 548 kts | 77° |
| 2026-05-06 19:14 | 60.89995 | 54.60478 | 36105 ft | 548 kts | 77° |
| 2026-05-06 19:14 | 60.91715 | 54.75730 | 36101 ft | 548 kts | 77° |
| 2026-05-06 19:15 | 60.93419 | 54.90999 | 36095 ft | 548 kts | 77° |
| 2026-05-06 19:15 | 60.95107 | 55.06303 | 36090 ft | 548 kts | 77° |
| 2026-05-06 19:16 | 60.96768 | 55.21538 | 36092 ft | 548 kts | 77° |
| 2026-05-06 19:16 | 60.98417 | 55.36838 | 36087 ft | 548 kts | 78° |
| 2026-05-06 19:17 | 61.00050 | 55.52164 | 36080 ft | 548 kts | 78° |
| 2026-05-06 19:17 | 61.01666 | 55.67511 | 36081 ft | 547 kts | 78° |
| 2026-05-06 19:18 | 61.03264 | 55.82863 | 36079 ft | 548 kts | 78° |
| 2026-05-06 19:18 | 61.04848 | 55.98259 | 36077 ft | 547 kts | 78° |
| 2026-05-06 19:19 | 61.06402 | 56.13559 | 36073 ft | 547 kts | 78° |
| 2026-05-06 19:19 | 61.07959 | 56.29074 | 36078 ft | 548 kts | 79° |
| 2026-05-06 19:20 | 61.09478 | 56.44398 | 36068 ft | 548 kts | 79° |
| 2026-05-06 19:20 | 61.10992 | 56.59860 | 36068 ft | 548 kts | 79° |
| 2026-05-06 19:21 | 61.12488 | 56.75337 | 36068 ft | 548 kts | 79° |
| 2026-05-06 19:21 | 61.13964 | 56.90807 | 36063 ft | 548 kts | 79° |
| 2026-05-06 19:22 | 61.15426 | 57.06310 | 36055 ft | 549 kts | 79° |
| 2026-05-06 19:22 | 61.16915 | 57.21824 | 36053 ft | 549 kts | 77° |
| 2026-05-06 19:23 | 61.19066 | 57.37022 | 36057 ft | 550 kts | 72° |
| 2026-05-06 19:23 | 61.21387 | 57.52165 | 36037 ft | 551 kts | 72° |
| 2026-05-06 19:24 | 61.23659 | 57.67273 | 36045 ft | 552 kts | 72° |
| 2026-05-06 19:24 | 61.25894 | 57.82549 | 36039 ft | 552 kts | 73° |
| 2026-05-06 19:25 | 61.28097 | 57.97836 | 36038 ft | 553 kts | 73° |
| 2026-05-06 19:25 | 61.30295 | 58.13212 | 36040 ft | 553 kts | 73° |
| 2026-05-06 19:26 | 61.32471 | 58.28559 | 36042 ft | 554 kts | 73° |
| 2026-05-06 19:26 | 61.34623 | 58.43870 | 36042 ft | 554 kts | 73° |
| 2026-05-06 19:27 | 61.36768 | 58.59274 | 36039 ft | 554 kts | 73° |
| 2026-05-06 19:27 | 61.38905 | 58.74769 | 36036 ft | 554 kts | 73° |
| 2026-05-06 19:28 | 61.41030 | 58.90327 | 36036 ft | 554 kts | 73° |
| 2026-05-06 19:28 | 61.43114 | 59.05738 | 36041 ft | 553 kts | 73° |
| 2026-05-06 19:29 | 61.45189 | 59.21229 | 36041 ft | 553 kts | 73° |
| 2026-05-06 19:29 | 61.47232 | 59.36633 | 36045 ft | 552 kts | 74° |
| 2026-05-06 19:30 | 61.49282 | 59.52241 | 36031 ft | 551 kts | 74° |
| 2026-05-06 19:30 | 61.51286 | 59.67655 | 36031 ft | 550 kts | 74° |
| 2026-05-06 19:31 | 61.53278 | 59.83126 | 36038 ft | 550 kts | 74° |
| 2026-05-06 19:31 | 61.56231 | 60.06338 | 36026 ft | 548 kts | 74° |
| 2026-05-06 19:32 | 61.58174 | 60.21812 | 36025 ft | 547 kts | 75° |
| 2026-05-06 19:32 | 61.60097 | 60.37267 | 36021 ft | 547 kts | 75° |
| 2026-05-06 19:33 | 61.62004 | 60.52754 | 36019 ft | 547 kts | 75° |
| 2026-05-06 19:33 | 61.63894 | 60.68266 | 36020 ft | 546 kts | 75° |
| 2026-05-06 19:34 | 61.65762 | 60.83760 | 36019 ft | 546 kts | 75° |
| 2026-05-06 19:34 | 61.67603 | 60.99177 | 36015 ft | 546 kts | 75° |
| 2026-05-06 19:35 | 61.69449 | 61.14681 | 36021 ft | 546 kts | 75° |
| 2026-05-06 19:35 | 61.71304 | 61.30241 | 36018 ft | 546 kts | 75° |
| 2026-05-06 19:36 | 61.73136 | 61.45774 | 36021 ft | 546 kts | 75° |
| 2026-05-06 19:36 | 61.74952 | 61.61360 | 36025 ft | 546 kts | 76° |
| 2026-05-06 19:37 | 61.76743 | 61.76925 | 36022 ft | 545 kts | 76° |
| 2026-05-06 19:37 | 61.78217 | 61.89861 | 36024 ft | 545 kts | 76° |
| 2026-05-06 19:38 | 61.80270 | 62.08080 | 36028 ft | 544 kts | 76° |
| 2026-05-06 19:38 | 61.82005 | 62.23665 | 36022 ft | 544 kts | 76° |
| 2026-05-06 19:39 | 61.83717 | 62.39223 | 36026 ft | 543 kts | 76° |
| 2026-05-06 19:39 | 61.85415 | 62.54831 | 36026 ft | 543 kts | 76° |
| 2026-05-06 19:40 | 61.87093 | 62.70424 | 36029 ft | 542 kts | 77° |
| 2026-05-06 19:40 | 61.88754 | 62.86048 | 36032 ft | 542 kts | 77° |
| 2026-05-06 19:41 | 61.90394 | 63.01656 | 36039 ft | 542 kts | 77° |
| 2026-05-06 19:41 | 61.92008 | 63.17179 | 36038 ft | 542 kts | 77° |
| 2026-05-06 19:42 | 61.93314 | 63.32937 | 36027 ft | 542 kts | 85° |
| 2026-05-06 19:42 | 61.93552 | 63.48944 | 36036 ft | 541 kts | 90° |
| 2026-05-06 19:43 | 61.93647 | 63.64941 | 36036 ft | 542 kts | 90° |
| 2026-05-06 19:43 | 61.93776 | 63.80947 | 36033 ft | 542 kts | 89° |
| 2026-05-06 19:44 | 61.93923 | 63.96939 | 36043 ft | 541 kts | 89° |
| 2026-05-06 19:44 | 61.94054 | 64.12912 | 36040 ft | 541 kts | 89° |
| 2026-05-06 19:45 | 61.94163 | 64.28934 | 36039 ft | 541 kts | 90° |
| 2026-05-06 19:45 | 61.94251 | 64.44915 | 36042 ft | 541 kts | 90° |
| 2026-05-06 19:46 | 61.94320 | 64.60815 | 36042 ft | 541 kts | 90° |
| 2026-05-06 19:46 | 61.94371 | 64.75769 | 36047 ft | 540 kts | 90° |
| 2026-05-06 19:47 | 61.94372 | 64.90486 | 36057 ft | 539 kts | 93° |
| 2026-05-06 19:47 | 61.93783 | 65.06020 | 36056 ft | 538 kts | 96° |
| 2026-05-06 19:48 | 61.93029 | 65.21846 | 36052 ft | 538 kts | 97° |
| 2026-05-06 19:48 | 61.92284 | 65.37630 | 36050 ft | 537 kts | 96° |
| 2026-05-06 19:49 | 61.91553 | 65.53440 | 36057 ft | 537 kts | 96° |
| 2026-05-06 19:49 | 61.90816 | 65.69191 | 36057 ft | 536 kts | 96° |
| 2026-05-06 19:50 | 61.90061 | 65.84920 | 36057 ft | 536 kts | 97° |
| 2026-05-06 19:50 | 61.89288 | 66.00569 | 36061 ft | 535 kts | 97° |
| 2026-05-06 19:51 | 61.88495 | 66.16266 | 36062 ft | 535 kts | 97° |
| 2026-05-06 19:51 | 61.87685 | 66.31922 | 36063 ft | 534 kts | 97° |
| 2026-05-06 19:52 | 61.86998 | 66.44938 | 36064 ft | 534 kts | 97° |
| 2026-05-06 19:52 | 61.86155 | 66.60587 | 36066 ft | 534 kts | 97° |
| 2026-05-06 19:53 | 61.85295 | 66.76226 | 36067 ft | 534 kts | 97° |
| 2026-05-06 19:53 | 61.84417 | 66.91849 | 36074 ft | 534 kts | 97° |
| 2026-05-06 19:54 | 61.83523 | 67.07443 | 36073 ft | 534 kts | 97° |
| 2026-05-06 19:54 | 61.82611 | 67.23046 | 36075 ft | 534 kts | 98° |
| 2026-05-06 19:55 | 61.81679 | 67.38658 | 36081 ft | 534 kts | 98° |
| 2026-05-06 19:55 | 61.80731 | 67.54235 | 36083 ft | 534 kts | 98° |
| 2026-05-06 19:56 | 61.79765 | 67.69828 | 36085 ft | 534 kts | 98° |
| 2026-05-06 19:56 | 61.78788 | 67.85298 | 36087 ft | 534 kts | 98° |
| 2026-05-06 19:57 | 61.77787 | 68.00883 | 36094 ft | 534 kts | 98° |
| 2026-05-06 19:57 | 61.76772 | 68.16380 | 36083 ft | 535 kts | 98° |
| 2026-05-06 19:58 | 61.75718 | 68.31976 | 36089 ft | 535 kts | 98° |
| 2026-05-06 19:58 | 61.74647 | 68.47538 | 36087 ft | 535 kts | 99° |
| 2026-05-06 19:59 | 61.73563 | 68.63056 | 36084 ft | 535 kts | 99° |
| 2026-05-06 19:59 | 61.72463 | 68.78580 | 36086 ft | 535 kts | 99° |
| 2026-05-06 20:00 | 61.71344 | 68.94108 | 36087 ft | 535 kts | 99° |
| 2026-05-06 20:00 | 61.70215 | 69.09511 | 36086 ft | 535 kts | 99° |
| 2026-05-06 20:01 | 61.69063 | 69.24994 | 36088 ft | 535 kts | 99° |
| 2026-05-06 20:01 | 61.67895 | 69.40436 | 36088 ft | 534 kts | 99° |
| 2026-05-06 20:02 | 61.66707 | 69.55902 | 36096 ft | 534 kts | 99° |
| 2026-05-06 20:02 | 61.65502 | 69.71351 | 36098 ft | 534 kts | 99° |
| 2026-05-06 20:03 | 61.64281 | 69.86762 | 36096 ft | 534 kts | 100° |
| 2026-05-06 20:03 | 61.63051 | 70.02074 | 36106 ft | 534 kts | 100° |
| 2026-05-06 20:04 | 61.61797 | 70.17445 | 36107 ft | 534 kts | 100° |
| 2026-05-06 20:04 | 61.60525 | 70.32825 | 36113 ft | 533 kts | 100° |
| 2026-05-06 20:05 | 61.59239 | 70.48145 | 36114 ft | 533 kts | 100° |
| 2026-05-06 20:05 | 61.57945 | 70.63356 | 36116 ft | 533 kts | 100° |
| 2026-05-06 20:06 | 61.56613 | 70.78792 | 36123 ft | 533 kts | 101° |
| 2026-05-06 20:06 | 61.55276 | 70.94094 | 36124 ft | 532 kts | 101° |
| 2026-05-06 20:07 | 61.53923 | 71.09374 | 36123 ft | 532 kts | 101° |
| 2026-05-06 20:07 | 61.52557 | 71.24612 | 36122 ft | 532 kts | 101° |
| 2026-05-06 20:08 | 61.51177 | 71.39854 | 36126 ft | 532 kts | 101° |
| 2026-05-06 20:08 | 61.49891 | 71.53882 | 36121 ft | 531 kts | 101° |
| 2026-05-06 20:09 | 61.48601 | 71.67798 | 36132 ft | 531 kts | 101° |
| 2026-05-06 20:09 | 61.47335 | 71.81289 | 36132 ft | 530 kts | 101° |
| 2026-05-06 20:10 | 61.46040 | 71.94955 | 36131 ft | 530 kts | 101° |
| 2026-05-06 20:10 | 61.44754 | 72.08311 | 36128 ft | 530 kts | 102° |
| 2026-05-06 20:11 | 61.43279 | 72.23362 | 36122 ft | 530 kts | 102° |
| 2026-05-06 20:11 | 61.41787 | 72.38423 | 36120 ft | 530 kts | 102° |
| 2026-05-06 20:12 | 61.40278 | 72.53503 | 36119 ft | 529 kts | 102° |
| 2026-05-06 20:12 | 61.38766 | 72.68449 | 36125 ft | 529 kts | 102° |
| 2026-05-06 20:13 | 61.37230 | 72.83442 | 36124 ft | 529 kts | 102° |
| 2026-05-06 20:13 | 61.35669 | 72.98438 | 36135 ft | 528 kts | 102° |
| 2026-05-06 20:14 | 61.34093 | 73.13408 | 36139 ft | 528 kts | 103° |
| 2026-05-06 20:14 | 61.32503 | 73.28359 | 36145 ft | 528 kts | 103° |
| 2026-05-06 20:15 | 61.30974 | 73.42598 | 36147 ft | 528 kts | 103° |
| 2026-05-06 20:15 | 61.29357 | 73.57480 | 36147 ft | 528 kts | 103° |
| 2026-05-06 20:16 | 61.27719 | 73.72388 | 36145 ft | 528 kts | 103° |
| 2026-05-06 20:16 | 61.26069 | 73.87249 | 36135 ft | 528 kts | 103° |
| 2026-05-06 20:17 | 61.24398 | 74.02139 | 36132 ft | 528 kts | 103° |
| 2026-05-06 20:17 | 61.22723 | 74.16913 | 36128 ft | 528 kts | 103° |
| 2026-05-06 20:18 | 61.21016 | 74.31817 | 36131 ft | 529 kts | 104° |
| 2026-05-06 20:18 | 61.19297 | 74.46657 | 36131 ft | 529 kts | 104° |
| 2026-05-06 20:19 | 61.17637 | 74.60862 | 36138 ft | 529 kts | 104° |
| 2026-05-06 20:19 | 61.15837 | 74.76123 | 36142 ft | 529 kts | 104° |
| 2026-05-06 20:20 | 61.14101 | 74.90694 | 36141 ft | 529 kts | 104° |
| 2026-05-06 20:20 | 61.12321 | 75.05475 | 36142 ft | 530 kts | 104° |
| 2026-05-06 20:21 | 61.10535 | 75.20157 | 36145 ft | 530 kts | 104° |
| 2026-05-06 20:21 | 61.08708 | 75.35034 | 36150 ft | 530 kts | 104° |
| 2026-05-06 20:22 | 61.06877 | 75.49788 | 36148 ft | 530 kts | 104° |
| 2026-05-06 20:22 | 61.05098 | 75.63985 | 36151 ft | 530 kts | 104° |
| 2026-05-06 20:23 | 61.03293 | 75.78258 | 36159 ft | 529 kts | 104° |
| 2026-05-06 20:23 | 61.01420 | 75.92924 | 36161 ft | 529 kts | 105° |
| 2026-05-06 20:24 | 60.99529 | 76.07587 | 36168 ft | 529 kts | 105° |
| 2026-05-06 20:24 | 60.97654 | 76.21996 | 36174 ft | 528 kts | 105° |
| 2026-05-06 20:25 | 60.95741 | 76.36580 | 36174 ft | 527 kts | 105° |
| 2026-05-06 20:25 | 60.93665 | 76.51006 | 36175 ft | 526 kts | 111° |
| 2026-05-06 20:26 | 60.91095 | 76.64220 | 36178 ft | 525 kts | 112° |
| 2026-05-06 20:26 | 60.88432 | 76.77643 | 36173 ft | 525 kts | 112° |
| 2026-05-06 20:27 | 60.85920 | 76.90509 | 36184 ft | 524 kts | 112° |
| 2026-05-06 20:27 | 60.83206 | 77.04396 | 36189 ft | 524 kts | 112° |
| 2026-05-06 20:28 | 60.80555 | 77.17968 | 36188 ft | 523 kts | 112° |
| 2026-05-06 20:28 | 60.77850 | 77.31816 | 36194 ft | 523 kts | 112° |
| 2026-05-06 20:29 | 60.75133 | 77.45618 | 36198 ft | 523 kts | 112° |
| 2026-05-06 20:29 | 60.72871 | 77.57067 | 36206 ft | 522 kts | 111° |
| 2026-05-06 20:30 | 60.70370 | 77.78755 | 36206 ft | 522 kts | 95° |
| 2026-05-06 20:31 | 60.69714 | 77.93520 | 36218 ft | 522 kts | 94° |
| 2026-05-06 20:31 | 60.69057 | 78.08209 | 36221 ft | 522 kts | 95° |
| 2026-05-06 20:32 | 60.68343 | 78.22949 | 36222 ft | 523 kts | 95° |
| 2026-05-06 20:32 | 60.67590 | 78.37737 | 36225 ft | 523 kts | 95° |
| 2026-05-06 20:33 | 60.66831 | 78.52288 | 36230 ft | 523 kts | 96° |
| 2026-05-06 20:33 | 60.66053 | 78.66942 | 36233 ft | 523 kts | 96° |
| 2026-05-06 20:34 | 60.65254 | 78.81704 | 36241 ft | 523 kts | 96° |
| 2026-05-06 20:34 | 60.64435 | 78.96523 | 36249 ft | 524 kts | 96° |
| 2026-05-06 20:35 | 60.63603 | 79.11280 | 36256 ft | 523 kts | 96° |
| 2026-05-06 20:35 | 60.62760 | 79.25924 | 36249 ft | 523 kts | 96° |
| 2026-05-06 20:36 | 60.61898 | 79.40632 | 36254 ft | 523 kts | 96° |
| 2026-05-06 20:36 | 60.61019 | 79.55326 | 36255 ft | 522 kts | 97° |
| 2026-05-06 20:37 | 60.60125 | 79.70011 | 36256 ft | 522 kts | 97° |
| 2026-05-06 20:37 | 60.59216 | 79.84669 | 36257 ft | 522 kts | 97° |
| 2026-05-06 20:38 | 60.58292 | 79.99311 | 36257 ft | 521 kts | 97° |
| 2026-05-06 20:38 | 60.57355 | 80.13918 | 36259 ft | 521 kts | 97° |
| 2026-05-06 20:39 | 60.56401 | 80.28521 | 36264 ft | 521 kts | 97° |
| 2026-05-06 20:39 | 60.55428 | 80.43134 | 36259 ft | 520 kts | 97° |
| 2026-05-06 20:40 | 60.54444 | 80.57713 | 36267 ft | 520 kts | 98° |
| 2026-05-06 20:40 | 60.53453 | 80.72174 | 36269 ft | 520 kts | 98° |
| 2026-05-06 20:41 | 60.52466 | 80.86333 | 36272 ft | 519 kts | 98° |
| 2026-05-06 20:41 | 60.51441 | 81.00824 | 36268 ft | 519 kts | 98° |
| 2026-05-06 20:42 | 60.50398 | 81.15324 | 36279 ft | 519 kts | 98° |
| 2026-05-06 20:42 | 60.49340 | 81.29797 | 36278 ft | 518 kts | 98° |
| 2026-05-06 20:43 | 60.48268 | 81.44250 | 36282 ft | 518 kts | 98° |
| 2026-05-06 20:43 | 60.47181 | 81.58683 | 36278 ft | 517 kts | 99° |
| 2026-05-06 20:44 | 60.46078 | 81.73122 | 36289 ft | 517 kts | 99° |
| 2026-05-06 20:44 | 60.44961 | 81.87509 | 36281 ft | 517 kts | 99° |
| 2026-05-06 20:45 | 60.43838 | 82.01782 | 36281 ft | 516 kts | 99° |
| 2026-05-06 20:45 | 60.42692 | 82.16140 | 36288 ft | 516 kts | 99° |
| 2026-05-06 20:46 | 60.41531 | 82.30479 | 36285 ft | 515 kts | 99° |
| 2026-05-06 20:46 | 60.40357 | 82.44778 | 36290 ft | 515 kts | 99° |
| 2026-05-06 20:47 | 60.39169 | 82.59053 | 36292 ft | 515 kts | 99° |
| 2026-05-06 20:47 | 60.37963 | 82.73346 | 36289 ft | 515 kts | 100° |
| 2026-05-06 20:48 | 60.36744 | 82.87611 | 36290 ft | 515 kts | 100° |
| 2026-05-06 20:48 | 60.35519 | 83.01749 | 36300 ft | 514 kts | 100° |
| 2026-05-06 20:49 | 60.34272 | 83.15958 | 36295 ft | 514 kts | 100° |
| 2026-05-06 20:49 | 60.33010 | 83.30160 | 36294 ft | 514 kts | 100° |
| 2026-05-06 20:50 | 60.31732 | 83.44358 | 36293 ft | 513 kts | 100° |
| 2026-05-06 20:50 | 60.30439 | 83.58542 | 36300 ft | 513 kts | 101° |
| 2026-05-06 20:51 | 60.29143 | 83.72578 | 36296 ft | 512 kts | 101° |
| 2026-05-06 20:51 | 60.27816 | 83.86783 | 36297 ft | 512 kts | 101° |
| 2026-05-06 20:52 | 60.26491 | 84.00799 | 36305 ft | 512 kts | 101° |
| 2026-05-06 20:52 | 60.25144 | 84.14885 | 36301 ft | 511 kts | 101° |
| 2026-05-06 20:53 | 60.23784 | 84.28929 | 36297 ft | 511 kts | 101° |
| 2026-05-06 20:53 | 60.22412 | 84.42938 | 36302 ft | 510 kts | 101° |
| 2026-05-06 20:54 | 60.21029 | 84.56895 | 36301 ft | 510 kts | 101° |
| 2026-05-06 20:54 | 60.19630 | 84.70885 | 36299 ft | 509 kts | 102° |
| 2026-05-06 20:55 | 60.18274 | 84.84781 | 36302 ft | 509 kts | 99° |
| 2026-05-06 20:55 | 60.17181 | 84.98832 | 36308 ft | 508 kts | 98° |
| 2026-05-06 20:56 | 60.16141 | 85.12883 | 36301 ft | 508 kts | 98° |
| 2026-05-06 20:56 | 60.15049 | 85.26904 | 36310 ft | 508 kts | 99° |
| 2026-05-06 20:57 | 60.13913 | 85.40907 | 36314 ft | 508 kts | 99° |
| 2026-05-06 20:57 | 60.12759 | 85.54850 | 36306 ft | 507 kts | 99° |
| 2026-05-06 20:58 | 60.11587 | 85.68840 | 36309 ft | 507 kts | 99° |
| 2026-05-06 20:58 | 60.10455 | 85.82202 | 36316 ft | 507 kts | 99° |
| 2026-05-06 20:59 | 60.09260 | 85.96130 | 36309 ft | 507 kts | 100° |
| 2026-05-06 20:59 | 60.08051 | 86.10050 | 36317 ft | 507 kts | 100° |
| 2026-05-06 21:00 | 60.06826 | 86.23966 | 36307 ft | 507 kts | 100° |
| 2026-05-06 21:00 | 60.05586 | 86.37887 | 36312 ft | 507 kts | 100° |
| 2026-05-06 21:01 | 60.04335 | 86.51748 | 36316 ft | 507 kts | 100° |
| 2026-05-06 21:01 | 60.03068 | 86.65617 | 36313 ft | 506 kts | 100° |
| 2026-05-06 21:02 | 60.01788 | 86.79460 | 36320 ft | 506 kts | 100° |
| 2026-05-06 21:02 | 60.00494 | 86.93294 | 36317 ft | 506 kts | 101° |
| 2026-05-06 21:03 | 59.99236 | 87.06575 | 36308 ft | 506 kts | 101° |
| 2026-05-06 21:03 | 59.97895 | 87.20575 | 36312 ft | 506 kts | 101° |
| 2026-05-06 21:04 | 59.96628 | 87.33653 | 36322 ft | 505 kts | 101° |
| 2026-05-06 21:04 | 59.95416 | 87.46035 | 36321 ft | 505 kts | 101° |
| 2026-05-06 21:05 | 59.94050 | 87.59839 | 36312 ft | 505 kts | 101° |
| 2026-05-06 21:05 | 59.92673 | 87.73584 | 36321 ft | 505 kts | 101° |
| 2026-05-06 21:06 | 59.91467 | 87.85518 | 36341 ft | 505 kts | 101° |
| 2026-05-06 21:06 | 59.90059 | 87.99287 | 36322 ft | 505 kts | 101° |
| 2026-05-06 21:07 | 59.88642 | 88.12998 | 36327 ft | 505 kts | 102° |
| 2026-05-06 21:07 | 59.87212 | 88.26689 | 36323 ft | 505 kts | 102° |
| 2026-05-06 21:08 | 59.85769 | 88.40354 | 36321 ft | 505 kts | 102° |
| 2026-05-06 21:08 | 59.84309 | 88.54034 | 36331 ft | 505 kts | 102° |
| 2026-05-06 21:09 | 59.82836 | 88.67690 | 36322 ft | 505 kts | 102° |
| 2026-05-06 21:09 | 59.81602 | 88.79028 | 36325 ft | 505 kts | 102° |
| 2026-05-06 21:10 | 59.80100 | 88.92688 | 36325 ft | 505 kts | 102° |
| 2026-05-06 21:10 | 59.78588 | 89.06310 | 36327 ft | 505 kts | 102° |
| 2026-05-06 21:11 | 59.77072 | 89.19831 | 36325 ft | 505 kts | 102° |
| 2026-05-06 21:11 | 59.75536 | 89.33407 | 36328 ft | 504 kts | 102° |
| 2026-05-06 21:12 | 59.73979 | 89.47004 | 36325 ft | 504 kts | 103° |
| 2026-05-06 21:12 | 59.72407 | 89.60520 | 36329 ft | 504 kts | 103° |
| 2026-05-06 21:13 | 59.70818 | 89.74052 | 36333 ft | 503 kts | 103° |
| 2026-05-06 21:13 | 59.69220 | 89.87551 | 36331 ft | 503 kts | 103° |
| 2026-05-06 21:14 | 59.67609 | 90.01044 | 36334 ft | 503 kts | 103° |
| 2026-05-06 21:14 | 59.65984 | 90.14513 | 36339 ft | 503 kts | 103° |
| 2026-05-06 21:15 | 59.64359 | 90.27866 | 36337 ft | 503 kts | 103° |
| 2026-05-06 21:15 | 59.62707 | 90.41308 | 36337 ft | 503 kts | 103° |
| 2026-05-06 21:16 | 59.61040 | 90.54754 | 36335 ft | 502 kts | 104° |
| 2026-05-06 21:16 | 59.59365 | 90.68140 | 36335 ft | 502 kts | 104° |
| 2026-05-06 21:17 | 59.57666 | 90.81585 | 36339 ft | 502 kts | 104° |
| 2026-05-06 21:17 | 59.55971 | 90.94889 | 36347 ft | 502 kts | 104° |
| 2026-05-06 21:18 | 59.54255 | 91.08227 | 36342 ft | 502 kts | 104° |
| 2026-05-06 21:18 | 59.52523 | 91.21580 | 36346 ft | 502 kts | 104° |
| 2026-05-06 21:19 | 59.50781 | 91.34883 | 36349 ft | 502 kts | 104° |
| 2026-05-06 21:19 | 59.49030 | 91.48143 | 36352 ft | 502 kts | 104° |
| 2026-05-06 21:20 | 59.47261 | 91.61428 | 36355 ft | 502 kts | 104° |
| 2026-05-06 21:20 | 59.45605 | 91.73762 | 36362 ft | 502 kts | 104° |
| 2026-05-06 21:21 | 59.43830 | 91.86869 | 36364 ft | 502 kts | 105° |
| 2026-05-06 21:21 | 59.42020 | 92.00119 | 36364 ft | 502 kts | 105° |
| 2026-05-06 21:22 | 59.40199 | 92.13341 | 36372 ft | 501 kts | 105° |
| 2026-05-06 21:22 | 59.38363 | 92.26554 | 36368 ft | 501 kts | 105° |
| 2026-05-06 21:23 | 59.36528 | 92.39663 | 36380 ft | 501 kts | 105° |
| 2026-05-06 21:23 | 59.34657 | 92.52909 | 36369 ft | 501 kts | 105° |
| 2026-05-06 21:24 | 59.32798 | 92.65971 | 36374 ft | 501 kts | 105° |
| 2026-05-06 21:24 | 59.30915 | 92.79092 | 36374 ft | 501 kts | 105° |
| 2026-05-06 21:25 | 59.29014 | 92.92231 | 36376 ft | 501 kts | 105° |
| 2026-05-06 21:25 | 59.27104 | 93.05324 | 36379 ft | 501 kts | 106° |
| 2026-05-06 21:26 | 59.25190 | 93.18351 | 36379 ft | 500 kts | 106° |
| 2026-05-06 21:26 | 59.23402 | 93.30439 | 36377 ft | 500 kts | 106° |
| 2026-05-06 21:27 | 59.21183 | 93.43097 | 36373 ft | 500 kts | 115° |
| 2026-05-06 21:27 | 59.18157 | 93.55307 | 36375 ft | 500 kts | 116° |
| 2026-05-06 21:28 | 59.15087 | 93.67474 | 36376 ft | 500 kts | 116° |
| 2026-05-06 21:28 | 59.12042 | 93.79642 | 36374 ft | 500 kts | 116° |
| 2026-05-06 21:29 | 59.09001 | 93.91827 | 36373 ft | 500 kts | 116° |
| 2026-05-06 21:29 | 59.05954 | 94.03987 | 36367 ft | 500 kts | 116° |
| 2026-05-06 21:30 | 59.02895 | 94.16123 | 36369 ft | 500 kts | 116° |
| 2026-05-06 21:30 | 58.99826 | 94.28225 | 36355 ft | 500 kts | 116° |
| 2026-05-06 21:31 | 58.96743 | 94.40316 | 36357 ft | 500 kts | 116° |
| 2026-05-06 21:31 | 58.93836 | 94.51655 | 36355 ft | 500 kts | 117° |
| 2026-05-06 21:32 | 58.90831 | 94.63317 | 36347 ft | 500 kts | 117° |
| 2026-05-06 21:32 | 58.86162 | 94.81317 | 36355 ft | 499 kts | 117° |
| 2026-05-06 21:33 | 58.83033 | 94.93299 | 36354 ft | 499 kts | 117° |
| 2026-05-06 21:33 | 58.79892 | 95.05263 | 36353 ft | 499 kts | 117° |
| 2026-05-06 21:34 | 58.76739 | 95.17207 | 36350 ft | 499 kts | 117° |
| 2026-05-06 21:34 | 58.73596 | 95.29051 | 36349 ft | 499 kts | 117° |
| 2026-05-06 21:35 | 58.70418 | 95.40965 | 36352 ft | 499 kts | 117° |
| 2026-05-06 21:35 | 58.67235 | 95.52836 | 36348 ft | 499 kts | 117° |
| 2026-05-06 21:36 | 58.64039 | 95.64693 | 36340 ft | 500 kts | 118° |
| 2026-05-06 21:36 | 58.60836 | 95.76513 | 36346 ft | 500 kts | 118° |
| 2026-05-06 21:37 | 58.57617 | 95.88333 | 36345 ft | 500 kts | 118° |
| 2026-05-06 21:37 | 58.54410 | 96.00047 | 36336 ft | 500 kts | 118° |
| 2026-05-06 21:38 | 58.51171 | 96.11816 | 36337 ft | 500 kts | 118° |
| 2026-05-06 21:38 | 58.47919 | 96.23573 | 36332 ft | 500 kts | 118° |
| 2026-05-06 21:39 | 58.44656 | 96.35313 | 36355 ft | 500 kts | 118° |
| 2026-05-06 21:39 | 58.41387 | 96.47019 | 36339 ft | 500 kts | 118° |
| 2026-05-06 21:40 | 58.38103 | 96.58731 | 36340 ft | 500 kts | 118° |
| 2026-05-06 21:40 | 58.34839 | 96.70347 | 36337 ft | 500 kts | 118° |
| 2026-05-06 21:41 | 58.31548 | 96.82008 | 36334 ft | 500 kts | 118° |
| 2026-05-06 21:41 | 58.28244 | 96.93654 | 36337 ft | 500 kts | 118° |
| 2026-05-06 21:42 | 58.24931 | 97.05270 | 36336 ft | 500 kts | 118° |
| 2026-05-06 21:42 | 58.21604 | 97.16876 | 36338 ft | 501 kts | 118° |
| 2026-05-06 21:43 | 58.18268 | 97.28459 | 36355 ft | 501 kts | 119° |
| 2026-05-06 21:43 | 58.14912 | 97.40048 | 36336 ft | 501 kts | 119° |
| 2026-05-06 21:44 | 58.11548 | 97.51607 | 36341 ft | 501 kts | 119° |
| 2026-05-06 21:44 | 58.08179 | 97.63129 | 36347 ft | 501 kts | 119° |
| 2026-05-06 21:45 | 58.04813 | 97.74582 | 36363 ft | 501 kts | 119° |
| 2026-05-06 21:45 | 58.01429 | 97.86041 | 36345 ft | 502 kts | 119° |
| 2026-05-06 21:46 | 57.98008 | 97.97565 | 36349 ft | 502 kts | 119° |
| 2026-05-06 21:46 | 57.94588 | 98.09031 | 36345 ft | 502 kts | 119° |
| 2026-05-06 21:47 | 57.91161 | 98.20464 | 36355 ft | 502 kts | 119° |
| 2026-05-06 21:47 | 57.87720 | 98.31889 | 36356 ft | 502 kts | 120° |
| 2026-05-06 21:48 | 57.84266 | 98.43300 | 36350 ft | 502 kts | 120° |
| 2026-05-06 21:48 | 57.80802 | 98.54689 | 36374 ft | 502 kts | 120° |
| 2026-05-06 21:49 | 57.77329 | 98.66056 | 36360 ft | 502 kts | 120° |
| 2026-05-06 21:49 | 57.73858 | 98.77358 | 36350 ft | 503 kts | 120° |
| 2026-05-06 21:50 | 57.70364 | 98.88689 | 36359 ft | 503 kts | 120° |
| 2026-05-06 21:50 | 57.66877 | 99.00023 | 36367 ft | 503 kts | 118° |
| 2026-05-06 21:51 | 57.64131 | 99.09514 | 36384 ft | 502 kts | 117° |
| 2026-05-06 21:51 | 57.60842 | 99.21123 | 36366 ft | 502 kts | 117° |
| 2026-05-06 21:52 | 57.57551 | 99.32604 | 36376 ft | 502 kts | 118° |
| 2026-05-06 21:52 | 57.54246 | 99.43981 | 36374 ft | 502 kts | 118° |
| 2026-05-06 21:53 | 57.50881 | 99.55476 | 36374 ft | 502 kts | 118° |
| 2026-05-06 21:53 | 57.47527 | 99.66882 | 36375 ft | 502 kts | 118° |
| 2026-05-06 21:54 | 57.44163 | 99.78273 | 36372 ft | 502 kts | 118° |
| 2026-05-06 21:54 | 57.40916 | 99.89216 | 36370 ft | 502 kts | 118° |
| 2026-05-06 21:55 | 57.37558 | 100.00483 | 36378 ft | 502 kts | 118° |
| 2026-05-06 21:55 | 57.34175 | 100.11775 | 36377 ft | 501 kts | 118° |
| 2026-05-06 21:56 | 57.30776 | 100.23068 | 36373 ft | 501 kts | 118° |
| 2026-05-06 21:56 | 57.27368 | 100.34335 | 36377 ft | 501 kts | 118° |
| 2026-05-06 21:57 | 57.23952 | 100.45575 | 36373 ft | 501 kts | 118° |
| 2026-05-06 21:57 | 57.20523 | 100.56801 | 36378 ft | 501 kts | 118° |
| 2026-05-06 21:58 | 57.17092 | 100.67986 | 36375 ft | 501 kts | 118° |
| 2026-05-06 21:58 | 57.13647 | 100.79163 | 36371 ft | 502 kts | 119° |
| 2026-05-06 21:59 | 57.10186 | 100.90348 | 36369 ft | 502 kts | 119° |
| 2026-05-06 21:59 | 57.06741 | 101.01412 | 36370 ft | 502 kts | 119° |
| 2026-05-06 22:00 | 57.03261 | 101.12532 | 36371 ft | 502 kts | 119° |
| 2026-05-06 22:00 | 56.99753 | 101.23700 | 36369 ft | 502 kts | 119° |
| 2026-05-06 22:01 | 56.96281 | 101.34707 | 36366 ft | 502 kts | 119° |
| 2026-05-06 22:01 | 56.92768 | 101.45790 | 36368 ft | 502 kts | 119° |
| 2026-05-06 22:02 | 56.89249 | 101.56842 | 36370 ft | 502 kts | 119° |
| 2026-05-06 22:02 | 56.85722 | 101.67867 | 36371 ft | 502 kts | 119° |
| 2026-05-06 22:03 | 56.82182 | 101.78882 | 36360 ft | 502 kts | 119° |
| 2026-05-06 22:03 | 56.78639 | 101.89857 | 36366 ft | 502 kts | 119° |
| 2026-05-06 22:04 | 56.75343 | 102.00030 | 36372 ft | 501 kts | 120° |
| 2026-05-06 22:04 | 56.71790 | 102.10942 | 36376 ft | 501 kts | 120° |
| 2026-05-06 22:05 | 56.68224 | 102.21856 | 36375 ft | 501 kts | 120° |
| 2026-05-06 22:05 | 56.64658 | 102.32733 | 36384 ft | 500 kts | 120° |
| 2026-05-06 22:06 | 56.61081 | 102.43593 | 36387 ft | 500 kts | 120° |
| 2026-05-06 22:06 | 56.57496 | 102.54427 | 36393 ft | 500 kts | 120° |
| 2026-05-06 22:07 | 56.53906 | 102.65228 | 36404 ft | 499 kts | 120° |
| 2026-05-06 22:07 | 56.50319 | 102.75972 | 36420 ft | 499 kts | 120° |
| 2026-05-06 22:08 | 56.46711 | 102.86729 | 36437 ft | 499 kts | 120° |
| 2026-05-06 22:08 | 56.43095 | 102.97464 | 36438 ft | 499 kts | 120° |
| 2026-05-06 22:09 | 56.39474 | 103.08164 | 36448 ft | 499 kts | 120° |
| 2026-05-06 22:09 | 56.35947 | 103.18542 | 36443 ft | 499 kts | 120° |
| 2026-05-06 22:10 | 56.32373 | 103.29012 | 36453 ft | 499 kts | 120° |
| 2026-05-06 22:10 | 56.28769 | 103.39524 | 36450 ft | 499 kts | 120° |
| 2026-05-06 22:11 | 56.25130 | 103.50092 | 36456 ft | 498 kts | 120° |
| 2026-05-06 22:11 | 56.21484 | 103.60636 | 36452 ft | 498 kts | 120° |
| 2026-05-06 22:12 | 56.18082 | 103.70432 | 36464 ft | 498 kts | 120° |
| 2026-05-06 22:12 | 56.14774 | 103.79920 | 36472 ft | 497 kts | 120° |
| 2026-05-06 22:13 | 56.11080 | 103.90472 | 36477 ft | 497 kts | 120° |
| 2026-05-06 22:13 | 56.07390 | 104.00964 | 36478 ft | 497 kts | 120° |
| 2026-05-06 22:14 | 56.03699 | 104.11418 | 36493 ft | 497 kts | 120° |
| 2026-05-06 22:14 | 55.99997 | 104.21856 | 36493 ft | 497 kts | 120° |
| 2026-05-06 22:15 | 55.96276 | 104.32304 | 36505 ft | 498 kts | 120° |
| 2026-05-06 22:15 | 55.92551 | 104.42725 | 36498 ft | 497 kts | 121° |
| 2026-05-06 22:16 | 55.88822 | 104.53108 | 36511 ft | 497 kts | 121° |
| 2026-05-06 22:16 | 55.85085 | 104.63479 | 36507 ft | 497 kts | 121° |
| 2026-05-06 22:17 | 55.81348 | 104.73815 | 36522 ft | 497 kts | 121° |
| 2026-05-06 22:17 | 55.77616 | 104.84094 | 36502 ft | 496 kts | 121° |
| 2026-05-06 22:18 | 55.73839 | 104.94457 | 36510 ft | 496 kts | 121° |
| 2026-05-06 22:18 | 55.70100 | 105.04669 | 36515 ft | 496 kts | 121° |
| 2026-05-06 22:19 | 55.66261 | 105.14927 | 36516 ft | 496 kts | 122° |
| 2026-05-06 22:19 | 55.62409 | 105.25068 | 36520 ft | 496 kts | 122° |
| 2026-05-06 22:20 | 55.58557 | 105.35194 | 36531 ft | 496 kts | 122° |
| 2026-05-06 22:20 | 55.54713 | 105.45283 | 36534 ft | 496 kts | 122° |
| 2026-05-06 22:21 | 55.50852 | 105.55382 | 36547 ft | 496 kts | 122° |
| 2026-05-06 22:21 | 55.46981 | 105.65463 | 36547 ft | 496 kts | 122° |
| 2026-05-06 22:22 | 55.43094 | 105.75542 | 36543 ft | 496 kts | 122° |
| 2026-05-06 22:22 | 55.39215 | 105.85565 | 36545 ft | 496 kts | 122° |
| 2026-05-06 22:23 | 55.35566 | 105.94974 | 36537 ft | 496 kts | 122° |
| 2026-05-06 22:23 | 55.31737 | 106.04987 | 36548 ft | 496 kts | 122° |
| 2026-05-06 22:24 | 55.27842 | 106.14894 | 36554 ft | 496 kts | 123° |
| 2026-05-06 22:24 | 55.23908 | 106.24821 | 36559 ft | 496 kts | 122° |
| 2026-05-06 22:25 | 55.19970 | 106.34766 | 36560 ft | 496 kts | 122° |
| 2026-05-06 22:25 | 55.16045 | 106.44644 | 36547 ft | 495 kts | 123° |
| 2026-05-06 22:26 | 55.12105 | 106.54537 | 36558 ft | 494 kts | 123° |
| 2026-05-06 22:26 | 55.08172 | 106.64390 | 36566 ft | 494 kts | 123° |
| 2026-05-06 22:27 | 55.06204 | 106.69308 | 36461 ft | 495 kts | 122° |
| 2026-05-06 22:27 | 55.04248 | 106.74188 | 36518 ft | 498 kts | 123° |
| 2026-05-06 22:27 | 55.00250 | 106.84128 | 36567 ft | 503 kts | 123° |
| 2026-05-06 22:28 | 54.96209 | 106.94133 | 36582 ft | 506 kts | 123° |
| 2026-05-06 22:28 | 54.93255 | 107.01419 | 36585 ft | 507 kts | 123° |
| 2026-05-06 22:29 | 54.89456 | 107.10758 | 36574 ft | 499 kts | 123° |
| 2026-05-06 22:29 | 54.85538 | 107.20360 | 36581 ft | 496 kts | 123° |
| 2026-05-06 22:30 | 54.81549 | 107.30098 | 36592 ft | 496 kts | 123° |
| 2026-05-06 22:30 | 54.77532 | 107.39842 | 36594 ft | 497 kts | 123° |
| 2026-05-06 22:31 | 54.73486 | 107.49620 | 36594 ft | 498 kts | 123° |
| 2026-05-06 22:31 | 54.69710 | 107.58718 | 36605 ft | 499 kts | 124° |
| 2026-05-06 22:32 | 54.65643 | 107.68486 | 36605 ft | 501 kts | 124° |
| 2026-05-06 22:32 | 54.61814 | 107.77642 | 36610 ft | 501 kts | 124° |
| 2026-05-06 22:33 | 54.57747 | 107.87333 | 36590 ft | 501 kts | 124° |
| 2026-05-06 22:33 | 54.53654 | 107.97052 | 36600 ft | 501 kts | 124° |
| 2026-05-06 22:34 | 54.49602 | 108.06642 | 36603 ft | 501 kts | 124° |
| 2026-05-06 22:34 | 54.45495 | 108.16325 | 36612 ft | 500 kts | 124° |
| 2026-05-06 22:35 | 54.41388 | 108.25972 | 36612 ft | 500 kts | 124° |
| 2026-05-06 22:35 | 54.37277 | 108.35587 | 36615 ft | 500 kts | 124° |
| 2026-05-06 22:36 | 54.33157 | 108.45189 | 36620 ft | 499 kts | 124° |
| 2026-05-06 22:36 | 54.29034 | 108.54766 | 36615 ft | 499 kts | 124° |
| 2026-05-06 22:37 | 54.24904 | 108.64320 | 36629 ft | 499 kts | 125° |
| 2026-05-06 22:37 | 54.20798 | 108.73757 | 36626 ft | 498 kts | 125° |
| 2026-05-06 22:38 | 54.16644 | 108.83263 | 36632 ft | 498 kts | 125° |
| 2026-05-06 22:38 | 54.12483 | 108.92756 | 36625 ft | 499 kts | 125° |
| 2026-05-06 22:39 | 54.08318 | 109.02227 | 36625 ft | 499 kts | 125° |
| 2026-05-06 22:39 | 54.04176 | 109.11608 | 36618 ft | 499 kts | 125° |
| 2026-05-06 22:40 | 53.99993 | 109.21049 | 36614 ft | 499 kts | 125° |
| 2026-05-06 22:40 | 53.95797 | 109.30480 | 36604 ft | 500 kts | 125° |
| 2026-05-06 22:41 | 53.89561 | 109.44436 | 36605 ft | 500 kts | 126° |
| 2026-05-06 22:42 | 53.85346 | 109.53823 | 36601 ft | 500 kts | 126° |
| 2026-05-06 22:42 | 53.81121 | 109.63198 | 36599 ft | 500 kts | 126° |
| 2026-05-06 22:43 | 53.76925 | 109.72476 | 36603 ft | 499 kts | 126° |
| 2026-05-06 22:43 | 53.72693 | 109.81797 | 36609 ft | 498 kts | 126° |
| 2026-05-06 22:44 | 53.68461 | 109.91087 | 36615 ft | 498 kts | 126° |
| 2026-05-06 22:44 | 53.64230 | 110.00342 | 36617 ft | 497 kts | 126° |
| 2026-05-06 22:45 | 53.59997 | 110.09556 | 36624 ft | 497 kts | 126° |
| 2026-05-06 22:45 | 53.55753 | 110.18758 | 36616 ft | 497 kts | 126° |
| 2026-05-06 22:46 | 53.51503 | 110.27942 | 36618 ft | 497 kts | 126° |
| 2026-05-06 22:46 | 53.47279 | 110.37045 | 36620 ft | 497 kts | 126° |
| 2026-05-06 22:47 | 53.43014 | 110.46199 | 36608 ft | 498 kts | 126° |
| 2026-05-06 22:47 | 53.38756 | 110.55308 | 36616 ft | 497 kts | 126° |
| 2026-05-06 22:48 | 53.34477 | 110.64426 | 36620 ft | 497 kts | 126° |
| 2026-05-06 22:48 | 53.30200 | 110.73509 | 36619 ft | 497 kts | 126° |
| 2026-05-06 22:49 | 53.25906 | 110.82593 | 36626 ft | 497 kts | 127° |
| 2026-05-06 22:49 | 53.21671 | 110.91522 | 36620 ft | 498 kts | 127° |
| 2026-05-06 22:50 | 53.17361 | 111.00575 | 36623 ft | 498 kts | 127° |
| 2026-05-06 22:50 | 53.13046 | 111.09606 | 36631 ft | 498 kts | 127° |
| 2026-05-06 22:51 | 53.08742 | 111.18583 | 36616 ft | 498 kts | 127° |
| 2026-05-06 22:51 | 53.04426 | 111.27553 | 36620 ft | 498 kts | 127° |
| 2026-05-06 22:52 | 53.00077 | 111.36558 | 36611 ft | 498 kts | 127° |
| 2026-05-06 22:52 | 52.95743 | 111.45501 | 36611 ft | 498 kts | 127° |
| 2026-05-06 22:53 | 52.91395 | 111.54441 | 36616 ft | 497 kts | 127° |
| 2026-05-06 22:53 | 52.87043 | 111.63358 | 36614 ft | 497 kts | 127° |
| 2026-05-06 22:54 | 52.82691 | 111.72242 | 36610 ft | 496 kts | 127° |
| 2026-05-06 22:54 | 52.78356 | 111.81061 | 36602 ft | 496 kts | 127° |
| 2026-05-06 22:55 | 52.73976 | 111.89940 | 36589 ft | 496 kts | 127° |
| 2026-05-06 22:55 | 52.69608 | 111.98764 | 36591 ft | 496 kts | 127° |
| 2026-05-06 22:56 | 52.65254 | 112.07530 | 36591 ft | 496 kts | 127° |
| 2026-05-06 22:56 | 52.60911 | 112.16244 | 36580 ft | 496 kts | 127° |
| 2026-05-06 22:57 | 52.56525 | 112.25013 | 36583 ft | 496 kts | 127° |
| 2026-05-06 22:57 | 52.52135 | 112.33758 | 36569 ft | 496 kts | 128° |
| 2026-05-06 22:58 | 52.47766 | 112.42431 | 36554 ft | 496 kts | 128° |
| 2026-05-06 22:58 | 52.43339 | 112.51192 | 36567 ft | 496 kts | 128° |
| 2026-05-06 22:59 | 52.39029 | 112.59689 | 36549 ft | 496 kts | 128° |
| 2026-05-06 22:59 | 52.34623 | 112.68350 | 36549 ft | 496 kts | 128° |
| 2026-05-06 23:00 | 52.30185 | 112.77042 | 36553 ft | 496 kts | 128° |
| 2026-05-06 23:00 | 52.25762 | 112.85673 | 36545 ft | 496 kts | 128° |
| 2026-05-06 23:01 | 52.21330 | 112.94294 | 36546 ft | 495 kts | 128° |
| 2026-05-06 23:01 | 52.16893 | 113.02898 | 36547 ft | 495 kts | 128° |
| 2026-05-06 23:02 | 52.12446 | 113.11489 | 36553 ft | 495 kts | 128° |
| 2026-05-06 23:02 | 52.08001 | 113.20053 | 36555 ft | 496 kts | 128° |
| 2026-05-06 23:03 | 52.03543 | 113.28588 | 36554 ft | 496 kts | 129° |
| 2026-05-06 23:03 | 51.98554 | 113.36267 | 36564 ft | 498 kts | 139° |
| 2026-05-06 23:04 | 51.93199 | 113.43414 | 36551 ft | 498 kts | 139° |
| 2026-05-06 23:04 | 51.88056 | 113.50309 | 36551 ft | 499 kts | 138° |
| 2026-05-06 23:05 | 51.83070 | 113.57046 | 36539 ft | 499 kts | 138° |
| 2026-05-06 23:05 | 51.78095 | 113.63768 | 36532 ft | 499 kts | 138° |
| 2026-05-06 23:06 | 51.73034 | 113.70584 | 36541 ft | 499 kts | 138° |
| 2026-05-06 23:06 | 51.68156 | 113.77129 | 36535 ft | 499 kts | 138° |
| 2026-05-06 23:07 | 51.63248 | 113.83697 | 36535 ft | 499 kts | 138° |
| 2026-05-06 23:07 | 51.58576 | 113.89923 | 36544 ft | 499 kts | 138° |
| 2026-05-06 23:08 | 51.53660 | 113.96435 | 36550 ft | 499 kts | 139° |
| 2026-05-06 23:08 | 51.48497 | 114.03256 | 36541 ft | 499 kts | 139° |
| 2026-05-06 23:09 | 51.44262 | 114.08839 | 36540 ft | 499 kts | 139° |
| 2026-05-06 23:09 | 51.38562 | 114.16334 | 36548 ft | 499 kts | 139° |
| 2026-05-06 23:10 | 51.34387 | 114.21809 | 36529 ft | 500 kts | 139° |
| 2026-05-06 23:10 | 51.29343 | 114.28407 | 36539 ft | 500 kts | 139° |
| 2026-05-06 23:11 | 51.25213 | 114.33793 | 36545 ft | 500 kts | 139° |
| 2026-05-06 23:11 | 51.19848 | 114.40773 | 36540 ft | 500 kts | 139° |
| 2026-05-06 23:12 | 51.14809 | 114.47310 | 36555 ft | 500 kts | 138° |
| 2026-05-06 23:12 | 51.10032 | 114.54944 | 36559 ft | 496 kts | 126° |
| 2026-05-06 23:13 | 51.06205 | 114.63986 | 36565 ft | 491 kts | 116° |
| 2026-05-06 23:13 | 51.02872 | 114.73490 | 36569 ft | 491 kts | 116° |
| 2026-05-06 23:14 | 50.99534 | 114.82972 | 36574 ft | 492 kts | 116° |
| 2026-05-06 23:14 | 50.96176 | 114.92369 | 36571 ft | 492 kts | 116° |
| 2026-05-06 23:15 | 50.92775 | 115.01802 | 36579 ft | 492 kts | 116° |
| 2026-05-06 23:15 | 50.89366 | 115.11219 | 36577 ft | 493 kts | 116° |
| 2026-05-06 23:16 | 50.85951 | 115.20622 | 36586 ft | 492 kts | 116° |
| 2026-05-06 23:16 | 50.82530 | 115.30012 | 36583 ft | 492 kts | 116° |
| 2026-05-06 23:17 | 50.79149 | 115.39258 | 36590 ft | 492 kts | 117° |
| 2026-05-06 23:17 | 50.75989 | 115.47873 | 36590 ft | 492 kts | 117° |
| 2026-05-06 23:18 | 50.72845 | 115.56413 | 36596 ft | 492 kts | 117° |
| 2026-05-06 23:18 | 50.69518 | 115.65419 | 36598 ft | 492 kts | 117° |
| 2026-05-06 23:19 | 50.66093 | 115.74656 | 36600 ft | 492 kts | 117° |
| 2026-05-06 23:19 | 50.62636 | 115.83952 | 36603 ft | 492 kts | 117° |
| 2026-05-06 23:20 | 50.59211 | 115.93129 | 36598 ft | 492 kts | 117° |
| 2026-05-06 23:20 | 50.55663 | 116.02365 | 36598 ft | 493 kts | 119° |
| 2026-05-06 23:21 | 50.51981 | 116.11472 | 36604 ft | 494 kts | 119° |
| 2026-05-06 23:21 | 50.48289 | 116.20600 | 36591 ft | 494 kts | 119° |
| 2026-05-06 23:22 | 50.44623 | 116.29712 | 36597 ft | 494 kts | 119° |
| 2026-05-06 23:22 | 50.41220 | 116.38136 | 36593 ft | 494 kts | 120° |
| 2026-05-06 23:23 | 50.37110 | 116.46230 | 36597 ft | 499 kts | 131° |
| 2026-05-06 23:23 | 50.31820 | 116.53504 | 36603 ft | 502 kts | 140° |
| 2026-05-06 23:24 | 50.26572 | 116.59891 | 36602 ft | 503 kts | 140° |
| 2026-05-06 23:24 | 50.21415 | 116.66238 | 36596 ft | 503 kts | 139° |
| 2026-05-06 23:25 | 50.15931 | 116.73049 | 36587 ft | 503 kts | 139° |
| 2026-05-06 23:25 | 50.10439 | 116.79810 | 36587 ft | 504 kts | 140° |
| 2026-05-06 23:26 | 50.04920 | 116.86532 | 36571 ft | 504 kts | 140° |
| 2026-05-06 23:26 | 49.99428 | 116.93205 | 36592 ft | 504 kts | 140° |
| 2026-05-06 23:27 | 49.93906 | 116.99904 | 36581 ft | 504 kts | 140° |
| 2026-05-06 23:27 | 49.88702 | 117.06203 | 36582 ft | 504 kts | 140° |
| 2026-05-06 23:28 | 49.83685 | 117.12259 | 36580 ft | 504 kts | 140° |
| 2026-05-06 23:28 | 49.78678 | 117.18286 | 36585 ft | 504 kts | 140° |
| 2026-05-06 23:29 | 49.73572 | 117.24416 | 36581 ft | 505 kts | 140° |
| 2026-05-06 23:29 | 49.68566 | 117.30412 | 36579 ft | 505 kts | 140° |
| 2026-05-06 23:30 | 49.63640 | 117.36401 | 36574 ft | 504 kts | 137° |
| 2026-05-06 23:30 | 49.59162 | 117.43357 | 36556 ft | 502 kts | 129° |
| 2026-05-06 23:31 | 49.55320 | 117.51029 | 36564 ft | 499 kts | 123° |
| 2026-05-06 23:31 | 49.51688 | 117.58695 | 36582 ft | 499 kts | 124° |
| 2026-05-06 23:32 | 49.47975 | 117.66413 | 36583 ft | 500 kts | 124° |
| 2026-05-06 23:32 | 49.44196 | 117.74202 | 36576 ft | 500 kts | 124° |
| 2026-05-06 23:33 | 49.40375 | 117.82054 | 36574 ft | 500 kts | 124° |
| 2026-05-06 23:33 | 49.36588 | 117.89819 | 36575 ft | 500 kts | 124° |
| 2026-05-06 23:34 | 49.32751 | 117.97671 | 36576 ft | 500 kts | 124° |
| 2026-05-06 23:34 | 49.29082 | 118.05433 | 36588 ft | 498 kts | 117° |
| 2026-05-06 23:35 | 49.26760 | 118.14432 | 36579 ft | 490 kts | 99° |
| 2026-05-06 23:35 | 49.26127 | 118.23689 | 36604 ft | 485 kts | 89° |
| 2026-05-06 23:36 | 49.25920 | 118.33478 | 36579 ft | 486 kts | 89° |
| 2026-05-06 23:36 | 49.25679 | 118.42973 | 36572 ft | 487 kts | 90° |
| 2026-05-06 23:37 | 49.25384 | 118.52496 | 36574 ft | 488 kts | 90° |
| 2026-05-06 23:37 | 49.25068 | 118.61911 | 36582 ft | 488 kts | 90° |
| 2026-05-06 23:38 | 49.24749 | 118.71265 | 36574 ft | 489 kts | 90° |
| 2026-05-06 23:38 | 49.24419 | 118.80756 | 36574 ft | 489 kts | 90° |
| 2026-05-06 23:39 | 49.24083 | 118.90242 | 36575 ft | 489 kts | 90° |
| 2026-05-06 23:39 | 49.23743 | 118.99651 | 36573 ft | 489 kts | 90° |
| 2026-05-06 23:40 | 49.23383 | 119.09115 | 36574 ft | 489 kts | 91° |
| 2026-05-06 23:40 | 49.23003 | 119.18684 | 36565 ft | 489 kts | 91° |
| 2026-05-06 23:41 | 49.22620 | 119.28148 | 36572 ft | 489 kts | 91° |
| 2026-05-06 23:41 | 49.22239 | 119.37439 | 36572 ft | 490 kts | 91° |
| 2026-05-06 23:42 | 49.21843 | 119.46902 | 36568 ft | 490 kts | 91° |
| 2026-05-06 23:42 | 49.21442 | 119.56316 | 36566 ft | 490 kts | 91° |
| 2026-05-06 23:43 | 49.21032 | 119.65797 | 36565 ft | 490 kts | 91° |
| 2026-05-06 23:43 | 49.20566 | 119.75458 | 36543 ft | 491 kts | 96° |
| 2026-05-06 23:44 | 49.18875 | 119.84550 | 36568 ft | 496 kts | 112° |
| 2026-05-06 23:44 | 49.15714 | 119.92745 | 36583 ft | 498 kts | 123° |
| 2026-05-06 23:45 | 49.12028 | 120.00610 | 36549 ft | 500 kts | 124° |
| 2026-05-06 23:45 | 49.08352 | 120.08426 | 36548 ft | 500 kts | 124° |
| 2026-05-06 23:46 | 49.04731 | 120.16247 | 36552 ft | 501 kts | 124° |
| 2026-05-06 23:46 | 49.01131 | 120.24076 | 36551 ft | 502 kts | 124° |
| 2026-05-06 23:47 | 48.97385 | 120.32213 | 36543 ft | 502 kts | 124° |
| 2026-05-06 23:47 | 48.93628 | 120.40341 | 36567 ft | 502 kts | 124° |
| 2026-05-06 23:48 | 48.89938 | 120.48294 | 36543 ft | 502 kts | 124° |
| 2026-05-06 23:48 | 48.86237 | 120.56249 | 36550 ft | 502 kts | 124° |
| 2026-05-06 23:49 | 48.82559 | 120.64129 | 36539 ft | 502 kts | 124° |
| 2026-05-06 23:49 | 48.78861 | 120.72031 | 36533 ft | 502 kts | 124° |
| 2026-05-06 23:50 | 48.75198 | 120.79838 | 36535 ft | 502 kts | 124° |
| 2026-05-06 23:50 | 48.69579 | 120.91813 | 36535 ft | 502 kts | 124° |
| 2026-05-06 23:51 | 48.65852 | 120.99794 | 36517 ft | 502 kts | 124° |
| 2026-05-06 23:51 | 48.62212 | 121.07570 | 36518 ft | 502 kts | 124° |
| 2026-05-06 23:52 | 48.58574 | 121.15316 | 36517 ft | 502 kts | 125° |
| 2026-05-06 23:52 | 48.54856 | 121.23206 | 36520 ft | 501 kts | 125° |
| 2026-05-06 23:53 | 48.51200 | 121.30936 | 36502 ft | 502 kts | 125° |
| 2026-05-06 23:53 | 48.47426 | 121.38891 | 36495 ft | 502 kts | 125° |
| 2026-05-06 23:54 | 48.43760 | 121.46601 | 36489 ft | 503 kts | 125° |
| 2026-05-06 23:54 | 48.40617 | 121.53191 | 36491 ft | 503 kts | 125° |
| 2026-05-06 23:55 | 48.36106 | 121.62625 | 36493 ft | 504 kts | 126° |
| 2026-05-06 23:55 | 48.32380 | 121.70391 | 36478 ft | 504 kts | 126° |
| 2026-05-06 23:56 | 48.29242 | 121.76915 | 36470 ft | 505 kts | 126° |
| 2026-05-06 23:56 | 48.25392 | 121.84895 | 36461 ft | 505 kts | 126° |
| 2026-05-06 23:57 | 48.21484 | 121.92977 | 36468 ft | 504 kts | 126° |
| 2026-05-06 23:57 | 48.17346 | 122.01504 | 36465 ft | 504 kts | 126° |
| 2026-05-06 23:58 | 48.13315 | 122.09787 | 36462 ft | 505 kts | 126° |
| 2026-05-06 23:58 | 48.09154 | 122.18310 | 36455 ft | 505 kts | 127° |
| 2026-05-06 23:59 | 48.05028 | 122.26733 | 36450 ft | 505 kts | 127° |
| 2026-05-06 23:59 | 48.00862 | 122.35213 | 36447 ft | 506 kts | 127° |
| 2026-05-07 00:00 | 47.96688 | 122.43685 | 36444 ft | 507 kts | 127° |
| 2026-05-07 00:00 | 47.92729 | 122.51695 | 36442 ft | 507 kts | 127° |
| 2026-05-07 00:01 | 47.89172 | 122.58871 | 36433 ft | 507 kts | 127° |
| 2026-05-07 00:01 | 47.85005 | 122.67260 | 36435 ft | 506 kts | 127° |
| 2026-05-07 00:02 | 47.80811 | 122.75675 | 36432 ft | 506 kts | 128° |
| 2026-05-07 00:02 | 47.76691 | 122.84130 | 36434 ft | 505 kts | 126° |
| 2026-05-07 00:03 | 47.72831 | 122.92299 | 36428 ft | 505 kts | 126° |
| 2026-05-07 00:03 | 47.68901 | 123.00593 | 36427 ft | 504 kts | 126° |
| 2026-05-07 00:04 | 47.64870 | 123.09026 | 36425 ft | 504 kts | 127° |
| 2026-05-07 00:04 | 47.60797 | 123.17499 | 36420 ft | 504 kts | 127° |
| 2026-05-07 00:05 | 47.56744 | 123.25900 | 36415 ft | 505 kts | 127° |
| 2026-05-07 00:05 | 47.52651 | 123.34362 | 36409 ft | 505 kts | 127° |
| 2026-05-07 00:06 | 47.48557 | 123.42805 | 36425 ft | 505 kts | 127° |
| 2026-05-07 00:06 | 47.44454 | 123.51239 | 36403 ft | 506 kts | 128° |
| 2026-05-07 00:07 | 47.40331 | 123.59687 | 36417 ft | 506 kts | 128° |
| 2026-05-07 00:07 | 47.36202 | 123.68122 | 36398 ft | 506 kts | 128° |
| 2026-05-07 00:08 | 47.32098 | 123.76483 | 36397 ft | 507 kts | 128° |
| 2026-05-07 00:08 | 47.27952 | 123.84906 | 36403 ft | 507 kts | 128° |
| 2026-05-07 00:09 | 47.23702 | 123.93198 | 36400 ft | 505 kts | 134° |
| 2026-05-07 00:09 | 47.18872 | 124.00533 | 36401 ft | 504 kts | 138° |
| 2026-05-07 00:10 | 47.13882 | 124.07816 | 36391 ft | 504 kts | 138° |
| 2026-05-07 00:10 | 47.08919 | 124.15107 | 36391 ft | 504 kts | 138° |
| 2026-05-07 00:11 | 47.03970 | 124.22420 | 36390 ft | 504 kts | 138° |
| 2026-05-07 00:11 | 46.99013 | 124.29740 | 36383 ft | 505 kts | 138° |
| 2026-05-07 00:12 | 46.94055 | 124.37038 | 36387 ft | 505 kts | 138° |
| 2026-05-07 00:12 | 46.89129 | 124.44264 | 36378 ft | 505 kts | 138° |
| 2026-05-07 00:13 | 46.84158 | 124.51536 | 36379 ft | 505 kts | 139° |
| 2026-05-07 00:13 | 46.79186 | 124.58788 | 36378 ft | 505 kts | 139° |
| 2026-05-07 00:14 | 46.74261 | 124.65954 | 36373 ft | 505 kts | 139° |
| 2026-05-07 00:14 | 46.69560 | 124.72776 | 36370 ft | 505 kts | 139° |
| 2026-05-07 00:15 | 46.64579 | 124.79983 | 36365 ft | 505 kts | 139° |
| 2026-05-07 00:15 | 46.59594 | 124.87176 | 36369 ft | 505 kts | 139° |
| 2026-05-07 00:16 | 46.54602 | 124.94360 | 36365 ft | 504 kts | 140° |
| 2026-05-07 00:16 | 46.49598 | 125.01543 | 36371 ft | 504 kts | 140° |
| 2026-05-07 00:17 | 46.44608 | 125.08686 | 36372 ft | 504 kts | 140° |
| 2026-05-07 00:17 | 46.39608 | 125.15824 | 36365 ft | 504 kts | 140° |
| 2026-05-07 00:18 | 46.34636 | 125.22902 | 36361 ft | 504 kts | 140° |
| 2026-05-07 00:18 | 46.29629 | 125.30015 | 36360 ft | 504 kts | 140° |
| 2026-05-07 00:19 | 46.24764 | 125.36942 | 36353 ft | 504 kts | 140° |
| 2026-05-07 00:19 | 46.19884 | 125.44048 | 36355 ft | 505 kts | 140° |
| 2026-05-07 00:20 | 46.14972 | 125.51222 | 36349 ft | 505 kts | 140° |
| 2026-05-07 00:20 | 46.10033 | 125.58393 | 36350 ft | 505 kts | 140° |
| 2026-05-07 00:21 | 46.05076 | 125.65554 | 36348 ft | 504 kts | 140° |
| 2026-05-07 00:21 | 46.00108 | 125.72709 | 36351 ft | 504 kts | 140° |
| 2026-05-07 00:22 | 45.95137 | 125.79851 | 36349 ft | 505 kts | 141° |
| 2026-05-07 00:22 | 45.90408 | 125.86627 | 36345 ft | 505 kts | 141° |
| 2026-05-07 00:23 | 45.85919 | 125.93043 | 36345 ft | 505 kts | 141° |
| 2026-05-07 00:23 | 45.81361 | 125.99546 | 36344 ft | 505 kts | 141° |
| 2026-05-07 00:24 | 45.76559 | 126.06377 | 36335 ft | 505 kts | 141° |
| 2026-05-07 00:24 | 45.71563 | 126.13466 | 36335 ft | 505 kts | 141° |
| 2026-05-07 00:25 | 45.66673 | 126.20388 | 36337 ft | 505 kts | 142° |
| 2026-05-07 00:25 | 45.62120 | 126.26820 | 36342 ft | 506 kts | 141° |
| 2026-05-07 00:26 | 45.57815 | 126.33333 | 36348 ft | 508 kts | 139° |
| 2026-05-07 00:26 | 45.53486 | 126.40194 | 36341 ft | 509 kts | 139° |
| 2026-05-07 00:27 | 45.49082 | 126.47129 | 36340 ft | 509 kts | 139° |
| 2026-05-07 00:27 | 45.44762 | 126.53835 | 36340 ft | 508 kts | 140° |
| 2026-05-07 00:28 | 45.40363 | 126.60610 | 36338 ft | 508 kts | 140° |
| 2026-05-07 00:28 | 45.35790 | 126.67635 | 36341 ft | 508 kts | 140° |
| 2026-05-07 00:29 | 45.31074 | 126.74866 | 36340 ft | 508 kts | 140° |
| 2026-05-07 00:30 | 45.21507 | 126.89484 | 36346 ft | 508 kts | 141° |
| 2026-05-07 00:30 | 45.16790 | 126.96664 | 36336 ft | 508 kts | 141° |
| 2026-05-07 00:31 | 45.11970 | 127.03980 | 36340 ft | 508 kts | 141° |
| 2026-05-07 00:31 | 45.07148 | 127.11281 | 36337 ft | 508 kts | 141° |
| 2026-05-07 00:32 | 45.02353 | 127.18526 | 36333 ft | 508 kts | 141° |
| 2026-05-07 00:32 | 44.97577 | 127.25904 | 36338 ft | 509 kts | 141° |
| 2026-05-07 00:33 | 44.92881 | 127.33244 | 36336 ft | 509 kts | 141° |
| 2026-05-07 00:33 | 44.88124 | 127.40646 | 36332 ft | 509 kts | 141° |
| 2026-05-07 00:34 | 44.83354 | 127.48026 | 36333 ft | 509 kts | 141° |
| 2026-05-07 00:34 | 44.78577 | 127.55387 | 36339 ft | 508 kts | 142° |
| 2026-05-07 00:35 | 44.73799 | 127.62729 | 36345 ft | 508 kts | 142° |
| 2026-05-07 00:35 | 44.69016 | 127.70062 | 36340 ft | 508 kts | 142° |
| 2026-05-07 00:36 | 44.64231 | 127.77379 | 36335 ft | 508 kts | 142° |
| 2026-05-07 00:36 | 44.59478 | 127.84630 | 36333 ft | 508 kts | 143° |
| 2026-05-07 00:37 | 44.54915 | 127.91573 | 36336 ft | 508 kts | 143° |
| 2026-05-07 00:37 | 44.50412 | 127.98409 | 36344 ft | 507 kts | 143° |
| 2026-05-07 00:38 | 44.45630 | 128.05649 | 36344 ft | 507 kts | 143° |
| 2026-05-07 00:38 | 44.40838 | 128.12881 | 36331 ft | 507 kts | 143° |
| 2026-05-07 00:39 | 44.36846 | 128.18893 | 36331 ft | 507 kts | 144° |
| 2026-05-07 00:39 | 44.31261 | 128.27285 | 36325 ft | 506 kts | 144° |
| 2026-05-07 00:40 | 44.27252 | 128.33297 | 36319 ft | 505 kts | 144° |
| 2026-05-07 00:40 | 44.22457 | 128.40466 | 36323 ft | 505 kts | 144° |
| 2026-05-07 00:41 | 44.17624 | 128.47675 | 36310 ft | 505 kts | 144° |
| 2026-05-07 00:41 | 44.12588 | 128.54176 | 36336 ft | 487 kts | 155° |
| 2026-05-07 00:42 | 44.06983 | 128.59175 | 36318 ft | 469 kts | 166° |
| 2026-05-07 00:42 | 44.01139 | 128.63239 | 36327 ft | 469 kts | 166° |
| 2026-05-07 00:43 | 43.95282 | 128.67314 | 36336 ft | 471 kts | 166° |
| 2026-05-07 00:43 | 43.89419 | 128.71440 | 36325 ft | 472 kts | 166° |
| 2026-05-07 00:44 | 43.83605 | 128.75538 | 36337 ft | 472 kts | 166° |
| 2026-05-07 00:44 | 43.77745 | 128.79655 | 36329 ft | 472 kts | 166° |
| 2026-05-07 00:45 | 43.71845 | 128.83791 | 36335 ft | 472 kts | 166° |
| 2026-05-07 00:45 | 43.65979 | 128.87914 | 36343 ft | 472 kts | 166° |
| 2026-05-07 00:46 | 43.60108 | 128.92037 | 36348 ft | 473 kts | 166° |
| 2026-05-07 00:46 | 43.54252 | 128.96138 | 36331 ft | 473 kts | 166° |
| 2026-05-07 00:47 | 43.48364 | 129.00250 | 36324 ft | 474 kts | 166° |
| 2026-05-07 00:47 | 43.42457 | 129.04369 | 36331 ft | 476 kts | 166° |
| 2026-05-07 00:48 | 43.36547 | 129.08552 | 36341 ft | 481 kts | 164° |
| 2026-05-07 00:48 | 43.30671 | 129.13054 | 36335 ft | 485 kts | 163° |
| 2026-05-07 00:49 | 43.24835 | 129.17575 | 36331 ft | 487 kts | 163° |
| 2026-05-07 00:49 | 43.18847 | 129.22152 | 36332 ft | 488 kts | 163° |
| 2026-05-07 00:50 | 43.12900 | 129.26658 | 36320 ft | 489 kts | 163° |
| 2026-05-07 00:50 | 43.06937 | 129.31164 | 36328 ft | 489 kts | 163° |
| 2026-05-07 00:51 | 43.00960 | 129.35675 | 36327 ft | 490 kts | 163° |
| 2026-05-07 00:51 | 42.94989 | 129.40172 | 36318 ft | 492 kts | 163° |
| 2026-05-07 00:52 | 42.88987 | 129.44682 | 36327 ft | 492 kts | 163° |
| 2026-05-07 00:52 | 42.82945 | 129.49016 | 36320 ft | 489 kts | 166° |
| 2026-05-07 00:53 | 42.76853 | 129.53151 | 36320 ft | 489 kts | 166° |
| 2026-05-07 00:53 | 42.70755 | 129.57304 | 36315 ft | 490 kts | 166° |
| 2026-05-07 00:54 | 42.64649 | 129.61498 | 36316 ft | 492 kts | 165° |
| 2026-05-07 00:54 | 42.58579 | 129.65667 | 36311 ft | 493 kts | 165° |
| 2026-05-07 00:55 | 42.52459 | 129.69858 | 36304 ft | 493 kts | 166° |
| 2026-05-07 00:55 | 42.46636 | 129.73837 | 36323 ft | 493 kts | 166° |
| 2026-05-07 00:56 | 42.40540 | 129.78285 | 36319 ft | 499 kts | 162° |
| 2026-05-07 00:56 | 42.34508 | 129.82974 | 36308 ft | 500 kts | 162° |
| 2026-05-07 00:57 | 42.28763 | 129.87409 | 36307 ft | 498 kts | 162° |
| 2026-05-07 00:57 | 42.23429 | 129.91470 | 36299 ft | 497 kts | 163° |
| 2026-05-07 00:58 | 42.17685 | 129.95811 | 36307 ft | 496 kts | 163° |
| 2026-05-07 00:58 | 42.11703 | 130.00321 | 36308 ft | 495 kts | 163° |
| 2026-05-07 00:59 | 42.03135 | 130.06767 | 36310 ft | 495 kts | 163° |
| 2026-05-07 01:00 | 41.97147 | 130.11263 | 36301 ft | 494 kts | 163° |
| 2026-05-07 01:00 | 41.91143 | 130.15761 | 36300 ft | 494 kts | 163° |
| 2026-05-07 01:01 | 41.85138 | 130.20251 | 36313 ft | 493 kts | 163° |
| 2026-05-07 01:01 | 41.79293 | 130.24611 | 36314 ft | 493 kts | 163° |
| 2026-05-07 01:02 | 41.73290 | 130.29080 | 36308 ft | 493 kts | 163° |
| 2026-05-07 01:02 | 41.67291 | 130.33532 | 36311 ft | 493 kts | 163° |
| 2026-05-07 01:03 | 41.61341 | 130.37939 | 36306 ft | 493 kts | 163° |
| 2026-05-07 01:03 | 41.55291 | 130.42410 | 36309 ft | 492 kts | 163° |
| 2026-05-07 01:04 | 41.49332 | 130.46807 | 36294 ft | 492 kts | 163° |
| 2026-05-07 01:04 | 41.43329 | 130.51224 | 36308 ft | 491 kts | 163° |
| 2026-05-07 01:05 | 41.37343 | 130.55613 | 36306 ft | 491 kts | 163° |
| 2026-05-07 01:05 | 41.31353 | 130.59997 | 36300 ft | 490 kts | 163° |
| 2026-05-07 01:06 | 41.25374 | 130.64366 | 36304 ft | 489 kts | 163° |
| 2026-05-07 01:06 | 41.19410 | 130.68715 | 36298 ft | 489 kts | 163° |
| 2026-05-07 01:07 | 41.13453 | 130.73050 | 36301 ft | 488 kts | 163° |
| 2026-05-07 01:07 | 41.07488 | 130.77381 | 36301 ft | 488 kts | 163° |
| 2026-05-07 01:08 | 41.01541 | 130.81690 | 36306 ft | 487 kts | 163° |
| 2026-05-07 01:08 | 40.95669 | 130.85936 | 36304 ft | 487 kts | 163° |
| 2026-05-07 01:09 | 40.89705 | 130.90240 | 36309 ft | 487 kts | 163° |
| 2026-05-07 01:09 | 40.83729 | 130.94544 | 36307 ft | 487 kts | 163° |
| 2026-05-07 01:10 | 40.77769 | 130.98827 | 36305 ft | 487 kts | 163° |
| 2026-05-07 01:10 | 40.71813 | 131.03098 | 36297 ft | 487 kts | 163° |
| 2026-05-07 01:11 | 40.65859 | 131.07360 | 36295 ft | 487 kts | 163° |
| 2026-05-07 01:11 | 40.59937 | 131.11589 | 36295 ft | 487 kts | 164° |
| 2026-05-07 01:12 | 40.53982 | 131.15834 | 36295 ft | 488 kts | 164° |
| 2026-05-07 01:12 | 40.47993 | 131.20094 | 36298 ft | 489 kts | 164° |
| 2026-05-07 01:13 | 40.42016 | 131.24337 | 36308 ft | 489 kts | 164° |
| 2026-05-07 01:13 | 40.36006 | 131.28595 | 36302 ft | 490 kts | 164° |
| 2026-05-07 01:14 | 40.29997 | 131.32845 | 36301 ft | 491 kts | 164° |
| 2026-05-07 01:14 | 40.23975 | 131.37096 | 36300 ft | 491 kts | 164° |
| 2026-05-07 01:15 | 40.18001 | 131.41305 | 36302 ft | 492 kts | 164° |
| 2026-05-07 01:15 | 40.11961 | 131.45549 | 36294 ft | 492 kts | 164° |
| 2026-05-07 01:16 | 40.05934 | 131.49777 | 36294 ft | 492 kts | 163° |
| 2026-05-07 01:16 | 39.99921 | 131.53990 | 36293 ft | 492 kts | 163° |
| 2026-05-07 01:17 | 39.93859 | 131.58228 | 36287 ft | 492 kts | 163° |
| 2026-05-07 01:17 | 39.87824 | 131.62439 | 36285 ft | 492 kts | 163° |
| 2026-05-07 01:18 | 39.81777 | 131.66650 | 36284 ft | 493 kts | 163° |
| 2026-05-07 01:18 | 39.76754 | 131.70141 | 36293 ft | 493 kts | 163° |
| 2026-05-07 01:19 | 39.70695 | 131.74345 | 36299 ft | 493 kts | 163° |
| 2026-05-07 01:19 | 39.64637 | 131.78539 | 36294 ft | 494 kts | 163° |
| 2026-05-07 01:20 | 39.58568 | 131.82734 | 36294 ft | 494 kts | 163° |
| 2026-05-07 01:20 | 39.52554 | 131.86882 | 36293 ft | 494 kts | 163° |
| 2026-05-07 01:21 | 39.46477 | 131.91065 | 36289 ft | 494 kts | 162° |
| 2026-05-07 01:21 | 39.40408 | 131.95234 | 36285 ft | 494 kts | 162° |
| 2026-05-07 01:22 | 39.34337 | 131.99396 | 36285 ft | 494 kts | 162° |
| 2026-05-07 01:22 | 39.28263 | 132.03552 | 36286 ft | 494 kts | 162° |
| 2026-05-07 01:23 | 39.22205 | 132.07688 | 36292 ft | 494 kts | 162° |
| 2026-05-07 01:23 | 39.16107 | 132.11843 | 36292 ft | 495 kts | 162° |
| 2026-05-07 01:24 | 39.10032 | 132.15976 | 36295 ft | 495 kts | 162° |
| 2026-05-07 01:24 | 39.03919 | 132.20125 | 36297 ft | 495 kts | 161° |
| 2026-05-07 01:25 | 38.97860 | 132.24231 | 36301 ft | 495 kts | 161° |
| 2026-05-07 01:25 | 38.91751 | 132.28363 | 36301 ft | 496 kts | 161° |
| 2026-05-07 01:26 | 38.85643 | 132.32485 | 36305 ft | 495 kts | 161° |
| 2026-05-07 01:26 | 38.79540 | 132.36596 | 36309 ft | 495 kts | 161° |
| 2026-05-07 01:27 | 38.73432 | 132.40704 | 36307 ft | 495 kts | 161° |
| 2026-05-07 01:27 | 38.67333 | 132.44781 | 36310 ft | 492 kts | 163° |
| 2026-05-07 01:28 | 38.61034 | 132.47775 | 36317 ft | 477 kts | 173° |
| 2026-05-07 01:28 | 38.54591 | 132.49343 | 36319 ft | 468 kts | 180° |
| 2026-05-07 01:29 | 38.48219 | 132.50554 | 36325 ft | 468 kts | 180° |
| 2026-05-07 01:29 | 38.41775 | 132.51807 | 36324 ft | 469 kts | 179° |
| 2026-05-07 01:30 | 38.35358 | 132.53083 | 36328 ft | 469 kts | 179° |
| 2026-05-07 01:30 | 38.28906 | 132.54371 | 36329 ft | 469 kts | 179° |
| 2026-05-07 01:31 | 38.22454 | 132.55657 | 36327 ft | 469 kts | 179° |
| 2026-05-07 01:31 | 38.15984 | 132.56942 | 36331 ft | 469 kts | 179° |
| 2026-05-07 01:32 | 38.09526 | 132.58222 | 36334 ft | 469 kts | 179° |
| 2026-05-07 01:32 | 38.03076 | 132.59499 | 36334 ft | 469 kts | 179° |
| 2026-05-07 01:33 | 37.96618 | 132.60775 | 36333 ft | 469 kts | 179° |
| 2026-05-07 01:33 | 37.90160 | 132.62053 | 36338 ft | 468 kts | 179° |
| 2026-05-07 01:34 | 37.83865 | 132.63300 | 36340 ft | 468 kts | 178° |
| 2026-05-07 01:34 | 37.77593 | 132.64540 | 36347 ft | 468 kts | 178° |
| 2026-05-07 01:35 | 37.71183 | 132.65805 | 36343 ft | 467 kts | 178° |
| 2026-05-07 01:35 | 37.64740 | 132.67073 | 36352 ft | 467 kts | 178° |
| 2026-05-07 01:36 | 37.59025 | 132.68194 | 36351 ft | 467 kts | 178° |
| 2026-05-07 01:36 | 37.52730 | 132.69423 | 36370 ft | 469 kts | 178° |
| 2026-05-07 01:36 | 37.49507 | 132.70051 | 36554 ft | 469 kts | 178° |
| 2026-05-07 01:37 | 37.46283 | 132.70682 | 36889 ft | 467 kts | 178° |
| 2026-05-07 01:37 | 37.43073 | 132.71310 | 37209 ft | 465 kts | 178° |
| 2026-05-07 01:37 | 37.40071 | 132.71896 | 37565 ft | 462 kts | 178° |
| 2026-05-07 01:37 | 37.36903 | 132.72514 | 37984 ft | 458 kts | 179° |
| 2026-05-07 01:38 | 37.33784 | 132.73119 | 37946 ft | 459 kts | 179° |
| 2026-05-07 01:38 | 37.30637 | 132.73730 | 38118 ft | 459 kts | 178° |
| 2026-05-07 01:38 | 37.27501 | 132.74359 | 38409 ft | 457 kts | 178° |
| 2026-05-07 01:38 | 37.24347 | 132.75008 | 38637 ft | 457 kts | 178° |
| 2026-05-07 01:39 | 37.21198 | 132.75658 | 38739 ft | 460 kts | 178° |
| 2026-05-07 01:39 | 37.14883 | 132.76960 | 38880 ft | 462 kts | 178° |
| 2026-05-07 01:40 | 37.08735 | 132.78221 | 38964 ft | 465 kts | 178° |
| 2026-05-07 01:40 | 37.02312 | 132.79532 | 38970 ft | 469 kts | 178° |
| 2026-05-07 01:41 | 36.96062 | 132.80807 | 38982 ft | 472 kts | 178° |
| 2026-05-07 01:41 | 36.89869 | 132.82068 | 38981 ft | 473 kts | 178° |
| 2026-05-07 01:42 | 36.83925 | 132.83277 | 38980 ft | 473 kts | 178° |
| 2026-05-07 01:42 | 36.77914 | 132.84498 | 38980 ft | 472 kts | 178° |
| 2026-05-07 01:43 | 36.72045 | 132.85688 | 38984 ft | 470 kts | 178° |
| 2026-05-07 01:43 | 36.65822 | 132.86946 | 38982 ft | 468 kts | 178° |
| 2026-05-07 01:44 | 36.59650 | 132.88193 | 38981 ft | 466 kts | 178° |
| 2026-05-07 01:44 | 36.53315 | 132.89470 | 38985 ft | 464 kts | 178° |
| 2026-05-07 01:45 | 36.46946 | 132.90752 | 38993 ft | 463 kts | 178° |
| 2026-05-07 01:45 | 36.40579 | 132.92030 | 38999 ft | 463 kts | 177° |
| 2026-05-07 01:46 | 36.34359 | 132.93277 | 39003 ft | 463 kts | 177° |
| 2026-05-07 01:46 | 36.27995 | 132.94551 | 39002 ft | 464 kts | 177° |
| 2026-05-07 01:47 | 36.21614 | 132.95827 | 39008 ft | 465 kts | 177° |
| 2026-05-07 01:47 | 36.15229 | 132.97103 | 38913 ft | 463 kts | 178° |
| 2026-05-07 01:47 | 36.12044 | 132.97740 | 38691 ft | 461 kts | 178° |
| 2026-05-07 01:48 | 36.08894 | 132.98370 | 38658 ft | 458 kts | 178° |
| 2026-05-07 01:48 | 36.02587 | 132.99622 | 38667 ft | 459 kts | 178° |
| 2026-05-07 01:48 | 35.99424 | 133.00249 | 38791 ft | 460 kts | 178° |
| 2026-05-07 01:49 | 35.96253 | 133.00878 | 38908 ft | 462 kts | 178° |
| 2026-05-07 01:49 | 35.93078 | 133.01506 | 39026 ft | 463 kts | 178° |
| 2026-05-07 01:49 | 35.89894 | 133.02137 | 39139 ft | 465 kts | 178° |
| 2026-05-07 01:49 | 35.86864 | 133.02738 | 39252 ft | 466 kts | 178° |
| 2026-05-07 01:50 | 35.83617 | 133.03381 | 39371 ft | 467 kts | 177° |
| 2026-05-07 01:50 | 35.80409 | 133.04016 | 39481 ft | 467 kts | 177° |
| 2026-05-07 01:50 | 35.77195 | 133.04652 | 39596 ft | 468 kts | 177° |
| 2026-05-07 01:51 | 35.70755 | 133.05923 | 39748 ft | 471 kts | 177° |
| 2026-05-07 01:51 | 35.64273 | 133.07202 | 39811 ft | 472 kts | 177° |
| 2026-05-07 01:52 | 35.57778 | 133.08504 | 39805 ft | 473 kts | 173° |
| 2026-05-07 01:52 | 35.54631 | 133.09807 | 39825 ft | 484 kts | 159° |
| 2026-05-07 01:52 | 35.51737 | 133.11993 | 39820 ft | 494 kts | 147° |
| 2026-05-07 01:52 | 35.49244 | 133.14958 | 39803 ft | 504 kts | 134° |
| 2026-05-07 01:53 | 35.47066 | 133.18336 | 39841 ft | 506 kts | 132° |
| 2026-05-07 01:53 | 35.42851 | 133.25128 | 39829 ft | 509 kts | 132° |
| 2026-05-07 01:54 | 35.38518 | 133.32038 | 39817 ft | 511 kts | 133° |
| 2026-05-07 01:54 | 35.34132 | 133.38879 | 39812 ft | 511 kts | 133° |
| 2026-05-07 01:55 | 35.29739 | 133.45661 | 39813 ft | 511 kts | 133° |
| 2026-05-07 01:55 | 35.25282 | 133.52523 | 39828 ft | 510 kts | 133° |
| 2026-05-07 01:56 | 35.20903 | 133.59262 | 39832 ft | 509 kts | 133° |
| 2026-05-07 01:56 | 35.16496 | 133.66035 | 39820 ft | 508 kts | 133° |
| 2026-05-07 01:57 | 35.12100 | 133.72775 | 39823 ft | 506 kts | 133° |
| 2026-05-07 01:57 | 35.07716 | 133.79486 | 39831 ft | 504 kts | 133° |
| 2026-05-07 01:58 | 35.03347 | 133.86162 | 39837 ft | 503 kts | 133° |
| 2026-05-07 01:58 | 34.99721 | 133.91691 | 39836 ft | 502 kts | 133° |
| 2026-05-07 01:59 | 34.95353 | 133.98340 | 39839 ft | 501 kts | 133° |
| 2026-05-07 01:59 | 34.91126 | 134.04763 | 39841 ft | 501 kts | 132° |
| 2026-05-07 02:00 | 34.86903 | 134.11168 | 39840 ft | 501 kts | 132° |
| 2026-05-07 02:00 | 34.82526 | 134.17795 | 39847 ft | 501 kts | 132° |
| 2026-05-07 02:01 | 34.78150 | 134.24407 | 39842 ft | 501 kts | 132° |
| 2026-05-07 02:01 | 34.73775 | 134.31007 | 39837 ft | 501 kts | 132° |
| 2026-05-07 02:02 | 34.69390 | 134.37608 | 39844 ft | 501 kts | 132° |
| 2026-05-07 02:02 | 34.65015 | 134.44183 | 39855 ft | 500 kts | 132° |
| 2026-05-07 02:03 | 34.60647 | 134.50734 | 39847 ft | 500 kts | 132° |
| 2026-05-07 02:03 | 34.56256 | 134.57308 | 39848 ft | 499 kts | 132° |
| 2026-05-07 02:04 | 34.51885 | 134.63841 | 39846 ft | 498 kts | 132° |
| 2026-05-07 02:04 | 34.47545 | 134.70314 | 39842 ft | 498 kts | 132° |
| 2026-05-07 02:05 | 34.43176 | 134.76819 | 39845 ft | 497 kts | 132° |
| 2026-05-07 02:05 | 34.38813 | 134.83302 | 39849 ft | 496 kts | 131° |
| 2026-05-07 02:06 | 34.34449 | 134.89776 | 39843 ft | 496 kts | 131° |
| 2026-05-07 02:06 | 34.30084 | 134.96241 | 39845 ft | 495 kts | 131° |
| 2026-05-07 02:07 | 34.25720 | 135.02691 | 39843 ft | 495 kts | 131° |
| 2026-05-07 02:07 | 34.19179 | 135.12338 | 39838 ft | 495 kts | 131° |
| 2026-05-07 02:08 | 34.14864 | 135.18688 | 39829 ft | 495 kts | 131° |
| 2026-05-07 02:08 | 34.10491 | 135.25112 | 39843 ft | 495 kts | 131° |
| 2026-05-07 02:09 | 34.06113 | 135.31533 | 39839 ft | 495 kts | 131° |
| 2026-05-07 02:09 | 34.01754 | 135.37914 | 39841 ft | 495 kts | 131° |
| 2026-05-07 02:10 | 33.97094 | 135.43990 | 39842 ft | 492 kts | 142° |
| 2026-05-07 02:10 | 33.91559 | 135.48829 | 39837 ft | 488 kts | 153° |
| 2026-05-07 02:11 | 33.85626 | 135.52712 | 39834 ft | 487 kts | 154° |
| 2026-05-07 02:11 | 33.79641 | 135.56569 | 39830 ft | 487 kts | 154° |
| 2026-05-07 02:12 | 33.73683 | 135.60463 | 39830 ft | 487 kts | 154° |
| 2026-05-07 02:12 | 33.67962 | 135.64225 | 39832 ft | 487 kts | 154° |
| 2026-05-07 02:13 | 33.62987 | 135.67496 | 39841 ft | 487 kts | 154° |
| 2026-05-07 02:13 | 33.57530 | 135.71075 | 39836 ft | 486 kts | 154° |
| 2026-05-07 02:14 | 33.52346 | 135.74468 | 39834 ft | 485 kts | 154° |
| 2026-05-07 02:14 | 33.46573 | 135.78240 | 39839 ft | 484 kts | 155° |
| 2026-05-07 02:15 | 33.41129 | 135.81130 | 39829 ft | 478 kts | 163° |
| 2026-05-07 02:15 | 33.35206 | 135.83642 | 39839 ft | 476 kts | 164° |
| 2026-05-07 02:16 | 33.29378 | 135.86138 | 39836 ft | 474 kts | 164° |
| 2026-05-07 02:16 | 33.23267 | 135.88809 | 39836 ft | 472 kts | 164° |
| 2026-05-07 02:17 | 33.17110 | 135.91484 | 39836 ft | 470 kts | 165° |
| 2026-05-07 02:17 | 33.10999 | 135.94130 | 39829 ft | 468 kts | 165° |
| 2026-05-07 02:18 | 33.04871 | 135.96780 | 39832 ft | 466 kts | 165° |
| 2026-05-07 02:18 | 32.98782 | 135.99412 | 39832 ft | 465 kts | 166° |
| 2026-05-07 02:19 | 32.92699 | 136.02036 | 39832 ft | 464 kts | 166° |
| 2026-05-07 02:19 | 32.86629 | 136.04652 | 39828 ft | 464 kts | 166° |
| 2026-05-07 02:20 | 32.80934 | 136.07102 | 39585 ft | 465 kts | 166° |
| 2026-05-07 02:20 | 32.77897 | 136.08409 | 39317 ft | 464 kts | 166° |
| 2026-05-07 02:20 | 32.74901 | 136.09697 | 39069 ft | 462 kts | 166° |
| 2026-05-07 02:21 | 32.71852 | 136.11006 | 38875 ft | 459 kts | 166° |
| 2026-05-07 02:21 | 32.68894 | 136.12276 | 38710 ft | 456 kts | 166° |
| 2026-05-07 02:21 | 32.65882 | 136.13570 | 38445 ft | 454 kts | 166° |
| 2026-05-07 02:21 | 32.62942 | 136.14832 | 38113 ft | 454 kts | 166° |
| 2026-05-07 02:22 | 32.59949 | 136.16114 | 37636 ft | 457 kts | 166° |
| 2026-05-07 02:22 | 32.56948 | 136.17398 | 37291 ft | 460 kts | 166° |
| 2026-05-07 02:22 | 32.50895 | 136.19990 | 37237 ft | 465 kts | 166° |
| 2026-05-07 02:23 | 32.44766 | 136.22613 | 37230 ft | 470 kts | 166° |
| 2026-05-07 02:23 | 32.38617 | 136.25244 | 37218 ft | 469 kts | 166° |
| 2026-05-07 02:24 | 32.32506 | 136.27850 | 37221 ft | 468 kts | 166° |
| 2026-05-07 02:24 | 32.26382 | 136.30450 | 37220 ft | 467 kts | 166° |
| 2026-05-07 02:25 | 32.20258 | 136.33043 | 37223 ft | 466 kts | 166° |
| 2026-05-07 02:25 | 32.14170 | 136.35619 | 37228 ft | 465 kts | 166° |
| 2026-05-07 02:26 | 32.08110 | 136.38181 | 37230 ft | 464 kts | 166° |
| 2026-05-07 02:26 | 32.02016 | 136.40753 | 37238 ft | 464 kts | 166° |
| 2026-05-07 02:27 | 31.95943 | 136.43313 | 37231 ft | 463 kts | 166° |
| 2026-05-07 02:27 | 31.89867 | 136.45871 | 37226 ft | 463 kts | 166° |
| 2026-05-07 02:28 | 31.83798 | 136.48422 | 37229 ft | 462 kts | 166° |
| 2026-05-07 02:28 | 31.77776 | 136.50949 | 37240 ft | 462 kts | 166° |
| 2026-05-07 02:29 | 31.71737 | 136.53481 | 37235 ft | 462 kts | 166° |
| 2026-05-07 02:29 | 31.65657 | 136.56026 | 37233 ft | 463 kts | 166° |
| 2026-05-07 02:30 | 31.59581 | 136.58566 | 37231 ft | 464 kts | 166° |
| 2026-05-07 02:30 | 31.53499 | 136.61105 | 37240 ft | 465 kts | 166° |
| 2026-05-07 02:31 | 31.47388 | 136.63654 | 37241 ft | 465 kts | 166° |
| 2026-05-07 02:31 | 31.41289 | 136.66193 | 37240 ft | 466 kts | 166° |
| 2026-05-07 02:32 | 31.35150 | 136.68743 | 37239 ft | 467 kts | 166° |
| 2026-05-07 02:32 | 31.29038 | 136.71279 | 37240 ft | 467 kts | 165° |
| 2026-05-07 02:33 | 31.22929 | 136.73811 | 37242 ft | 468 kts | 165° |
| 2026-05-07 02:33 | 31.16778 | 136.76358 | 37243 ft | 468 kts | 165° |
| 2026-05-07 02:34 | 31.10647 | 136.78894 | 37243 ft | 468 kts | 165° |
| 2026-05-07 02:34 | 31.04509 | 136.81428 | 37245 ft | 467 kts | 165° |
| 2026-05-07 02:35 | 30.98438 | 136.83932 | 37243 ft | 467 kts | 165° |
| 2026-05-07 02:35 | 30.92305 | 136.86457 | 37252 ft | 466 kts | 165° |
| 2026-05-07 02:36 | 30.86180 | 136.88976 | 37243 ft | 465 kts | 165° |
| 2026-05-07 02:36 | 30.80086 | 136.91479 | 37242 ft | 463 kts | 165° |
| 2026-05-07 02:37 | 30.74006 | 136.93972 | 37245 ft | 462 kts | 165° |
| 2026-05-07 02:37 | 30.67940 | 136.96456 | 37243 ft | 462 kts | 165° |
| 2026-05-07 02:38 | 30.61873 | 136.98937 | 37247 ft | 462 kts | 165° |
| 2026-05-07 02:38 | 30.55852 | 137.01396 | 37247 ft | 462 kts | 165° |
| 2026-05-07 02:39 | 30.49780 | 137.03874 | 37249 ft | 463 kts | 165° |
| 2026-05-07 02:39 | 30.43694 | 137.06353 | 37249 ft | 463 kts | 165° |
| 2026-05-07 02:40 | 30.38638 | 137.08410 | 37254 ft | 464 kts | 165° |
| 2026-05-07 02:40 | 30.33118 | 137.10654 | 37249 ft | 465 kts | 165° |
| 2026-05-07 02:41 | 30.27550 | 137.12914 | 37253 ft | 465 kts | 165° |
| 2026-05-07 02:41 | 30.22108 | 137.15121 | 37252 ft | 466 kts | 165° |
| 2026-05-07 02:42 | 30.16666 | 137.17325 | 37261 ft | 466 kts | 165° |
| 2026-05-07 02:42 | 30.11123 | 137.19568 | 37252 ft | 466 kts | 165° |
| 2026-05-07 02:43 | 30.05592 | 137.21803 | 37262 ft | 467 kts | 165° |
| 2026-05-07 02:43 | 30.00033 | 137.24047 | 37246 ft | 467 kts | 164° |
| 2026-05-07 02:44 | 29.94637 | 137.26221 | 37244 ft | 467 kts | 164° |
| 2026-05-07 02:44 | 29.88494 | 137.28693 | 37256 ft | 467 kts | 164° |
| 2026-05-07 02:45 | 29.82353 | 137.31162 | 37252 ft | 467 kts | 165° |
| 2026-05-07 02:45 | 29.76253 | 137.33612 | 37253 ft | 467 kts | 164° |
| 2026-05-07 02:46 | 29.70082 | 137.36088 | 37254 ft | 467 kts | 165° |
| 2026-05-07 02:46 | 29.63980 | 137.38533 | 37258 ft | 467 kts | 165° |
| 2026-05-07 02:47 | 29.57840 | 137.40989 | 37258 ft | 467 kts | 165° |
| 2026-05-07 02:47 | 29.51946 | 137.43345 | 37260 ft | 467 kts | 165° |
| 2026-05-07 02:48 | 29.45803 | 137.45796 | 37259 ft | 467 kts | 165° |
| 2026-05-07 02:48 | 29.39661 | 137.48244 | 37258 ft | 467 kts | 165° |
| 2026-05-07 02:49 | 29.33519 | 137.50690 | 37262 ft | 467 kts | 165° |
| 2026-05-07 02:49 | 29.27384 | 137.53128 | 37265 ft | 467 kts | 165° |
| 2026-05-07 02:50 | 29.21240 | 137.55568 | 37265 ft | 466 kts | 165° |
| 2026-05-07 02:50 | 29.15139 | 137.57988 | 37263 ft | 466 kts | 165° |
| 2026-05-07 02:51 | 29.09033 | 137.60406 | 37262 ft | 465 kts | 165° |
| 2026-05-07 02:51 | 29.03534 | 137.62582 | 37266 ft | 465 kts | 165° |
| 2026-05-07 02:52 | 28.97516 | 137.64960 | 37264 ft | 464 kts | 165° |
| 2026-05-07 02:52 | 28.91464 | 137.67348 | 37267 ft | 463 kts | 165° |
| 2026-05-07 02:53 | 28.85444 | 137.69721 | 37266 ft | 462 kts | 165° |
| 2026-05-07 02:53 | 28.79973 | 137.71874 | 37272 ft | 462 kts | 165° |
| 2026-05-07 02:54 | 28.74456 | 137.74044 | 37272 ft | 462 kts | 165° |
| 2026-05-07 02:54 | 28.69044 | 137.76170 | 37271 ft | 462 kts | 165° |
| 2026-05-07 02:55 | 28.63232 | 137.78450 | 37272 ft | 463 kts | 165° |
| 2026-05-07 02:55 | 28.57136 | 137.80839 | 37269 ft | 463 kts | 165° |
| 2026-05-07 02:56 | 28.51486 | 137.83051 | 37273 ft | 463 kts | 165° |
| 2026-05-07 02:56 | 28.45865 | 137.85248 | 37275 ft | 464 kts | 165° |
| 2026-05-07 02:57 | 28.40556 | 137.87322 | 37275 ft | 464 kts | 165° |
| 2026-05-07 02:57 | 28.34554 | 137.89664 | 37274 ft | 464 kts | 165° |
| 2026-05-07 02:58 | 28.28628 | 137.91973 | 37276 ft | 464 kts | 165° |
| 2026-05-07 02:58 | 28.22547 | 137.94340 | 37275 ft | 464 kts | 165° |
| 2026-05-07 02:59 | 28.16430 | 137.96717 | 37275 ft | 464 kts | 165° |
| 2026-05-07 02:59 | 28.10318 | 137.99090 | 37271 ft | 464 kts | 165° |
| 2026-05-07 03:00 | 28.04224 | 138.01454 | 37275 ft | 463 kts | 165° |
| 2026-05-07 03:00 | 27.98119 | 138.03818 | 37276 ft | 463 kts | 166° |
| 2026-05-07 03:01 | 27.92028 | 138.06175 | 37267 ft | 462 kts | 166° |
| 2026-05-07 03:01 | 27.86145 | 138.08448 | 37274 ft | 462 kts | 166° |
| 2026-05-07 03:02 | 27.80217 | 138.10736 | 37279 ft | 461 kts | 166° |
| 2026-05-07 03:02 | 27.74170 | 138.13067 | 37274 ft | 461 kts | 166° |
| 2026-05-07 03:03 | 27.68098 | 138.15405 | 37274 ft | 461 kts | 166° |
| 2026-05-07 03:03 | 27.62038 | 138.17736 | 37278 ft | 461 kts | 166° |
| 2026-05-07 03:04 | 27.55945 | 138.20076 | 37272 ft | 461 kts | 166° |
| 2026-05-07 03:04 | 27.49881 | 138.22403 | 37273 ft | 461 kts | 166° |
| 2026-05-07 03:05 | 27.43843 | 138.24717 | 37275 ft | 461 kts | 166° |
| 2026-05-07 03:05 | 27.37769 | 138.27042 | 37277 ft | 461 kts | 166° |
| 2026-05-07 03:06 | 27.31690 | 138.29366 | 37275 ft | 461 kts | 166° |
| 2026-05-07 03:06 | 27.25596 | 138.31694 | 37277 ft | 461 kts | 166° |
| 2026-05-07 03:07 | 27.19521 | 138.34012 | 37277 ft | 461 kts | 166° |
| 2026-05-07 03:07 | 27.13468 | 138.36318 | 37273 ft | 461 kts | 166° |
| 2026-05-07 03:08 | 27.07386 | 138.38633 | 37274 ft | 461 kts | 166° |
| 2026-05-07 03:08 | 27.01296 | 138.40948 | 37275 ft | 461 kts | 166° |
| 2026-05-07 03:09 | 26.95202 | 138.43263 | 37276 ft | 461 kts | 166° |
| 2026-05-07 03:09 | 26.89146 | 138.45559 | 37275 ft | 461 kts | 166° |
| 2026-05-07 03:10 | 26.83039 | 138.47873 | 37276 ft | 461 kts | 166° |
| 2026-05-07 03:10 | 26.76993 | 138.50161 | 37270 ft | 462 kts | 166° |
| 2026-05-07 03:11 | 26.70902 | 138.52463 | 37276 ft | 462 kts | 166° |
| 2026-05-07 03:11 | 26.64808 | 138.54764 | 37277 ft | 462 kts | 166° |
| 2026-05-07 03:12 | 26.58697 | 138.57069 | 37275 ft | 462 kts | 166° |
| 2026-05-07 03:12 | 26.52607 | 138.59364 | 37266 ft | 463 kts | 166° |
| 2026-05-07 03:13 | 26.46532 | 138.61649 | 37275 ft | 463 kts | 166° |
| 2026-05-07 03:13 | 26.40417 | 138.63948 | 37270 ft | 463 kts | 166° |
| 2026-05-07 03:14 | 26.34300 | 138.66245 | 37275 ft | 464 kts | 166° |
| 2026-05-07 03:15 | 26.25126 | 138.69684 | 37270 ft | 464 kts | 167° |
| 2026-05-07 03:15 | 26.18999 | 138.71979 | 37270 ft | 464 kts | 166° |
| 2026-05-07 03:16 | 26.12923 | 138.74252 | 37274 ft | 465 kts | 167° |
| 2026-05-07 03:16 | 26.06763 | 138.76553 | 37273 ft | 465 kts | 167° |
| 2026-05-07 03:17 | 26.00654 | 138.78832 | 37273 ft | 465 kts | 166° |
| 2026-05-07 03:17 | 25.94485 | 138.81132 | 37272 ft | 465 kts | 167° |
| 2026-05-07 03:18 | 25.88335 | 138.83422 | 37275 ft | 466 kts | 167° |
| 2026-05-07 03:18 | 25.82174 | 138.85714 | 37272 ft | 466 kts | 166° |
| 2026-05-07 03:19 | 25.76058 | 138.87986 | 37270 ft | 466 kts | 166° |
| 2026-05-07 03:19 | 25.69909 | 138.90269 | 37268 ft | 466 kts | 167° |
| 2026-05-07 03:20 | 25.63753 | 138.92551 | 37270 ft | 466 kts | 166° |
| 2026-05-07 03:20 | 25.57583 | 138.94835 | 37275 ft | 467 kts | 166° |
| 2026-05-07 03:21 | 25.51410 | 138.97119 | 37271 ft | 468 kts | 166° |
| 2026-05-07 03:21 | 25.45220 | 138.99407 | 37268 ft | 468 kts | 166° |
| 2026-05-07 03:22 | 25.39036 | 139.01690 | 37269 ft | 469 kts | 166° |
| 2026-05-07 03:22 | 25.32851 | 139.03970 | 37259 ft | 469 kts | 166° |
| 2026-05-07 03:23 | 25.26682 | 139.06243 | 37267 ft | 470 kts | 166° |
| 2026-05-07 03:23 | 25.20482 | 139.08524 | 37265 ft | 471 kts | 166° |
| 2026-05-07 03:24 | 25.14240 | 139.10819 | 37269 ft | 472 kts | 166° |
| 2026-05-07 03:24 | 25.08004 | 139.13109 | 37271 ft | 473 kts | 166° |
| 2026-05-07 03:25 | 25.01761 | 139.15400 | 37267 ft | 473 kts | 166° |
| 2026-05-07 03:25 | 24.96573 | 139.17309 | 37268 ft | 474 kts | 166° |
| 2026-05-07 03:26 | 24.90262 | 139.19652 | 37269 ft | 475 kts | 166° |
| 2026-05-07 03:26 | 24.84040 | 139.21964 | 37266 ft | 475 kts | 166° |
| 2026-05-07 03:27 | 24.77767 | 139.24290 | 37269 ft | 476 kts | 166° |
| 2026-05-07 03:27 | 24.71491 | 139.26613 | 37266 ft | 476 kts | 166° |
| 2026-05-07 03:28 | 24.65216 | 139.28932 | 37264 ft | 477 kts | 166° |
| 2026-05-07 03:28 | 24.58900 | 139.31264 | 37263 ft | 477 kts | 166° |
| 2026-05-07 03:29 | 24.52603 | 139.33587 | 37265 ft | 477 kts | 165° |
| 2026-05-07 03:29 | 24.46303 | 139.35908 | 37267 ft | 477 kts | 165° |
| 2026-05-07 03:30 | 24.40013 | 139.38223 | 37266 ft | 477 kts | 165° |
| 2026-05-07 03:30 | 24.33700 | 139.40544 | 37264 ft | 478 kts | 165° |
| 2026-05-07 03:31 | 24.27439 | 139.42844 | 37264 ft | 478 kts | 165° |
| 2026-05-07 03:31 | 24.21089 | 139.45174 | 37264 ft | 478 kts | 165° |
| 2026-05-07 03:32 | 24.14822 | 139.47471 | 37261 ft | 478 kts | 165° |
| 2026-05-07 03:32 | 24.08505 | 139.49784 | 37260 ft | 478 kts | 165° |
| 2026-05-07 03:33 | 24.02184 | 139.52096 | 37259 ft | 479 kts | 165° |
| 2026-05-07 03:33 | 23.95867 | 139.54404 | 37263 ft | 479 kts | 165° |
| 2026-05-07 03:34 | 23.89532 | 139.56716 | 37260 ft | 480 kts | 165° |
| 2026-05-07 03:34 | 23.83187 | 139.59029 | 37260 ft | 480 kts | 165° |
| 2026-05-07 03:35 | 23.76851 | 139.61337 | 37258 ft | 480 kts | 165° |
| 2026-05-07 03:35 | 23.70504 | 139.63647 | 37256 ft | 481 kts | 165° |
| 2026-05-07 03:36 | 23.64169 | 139.65950 | 37255 ft | 481 kts | 165° |
| 2026-05-07 03:36 | 23.57842 | 139.68248 | 37256 ft | 482 kts | 165° |
| 2026-05-07 03:37 | 23.51474 | 139.70558 | 37254 ft | 482 kts | 165° |
| 2026-05-07 03:37 | 23.45099 | 139.72867 | 37254 ft | 483 kts | 165° |
| 2026-05-07 03:38 | 23.38705 | 139.75182 | 37252 ft | 484 kts | 165° |
| 2026-05-07 03:38 | 23.32315 | 139.77493 | 37256 ft | 484 kts | 165° |
| 2026-05-07 03:39 | 23.25906 | 139.79809 | 37254 ft | 485 kts | 165° |
| 2026-05-07 03:39 | 23.19540 | 139.82106 | 37249 ft | 485 kts | 165° |
| 2026-05-07 03:40 | 23.13115 | 139.84423 | 37250 ft | 486 kts | 165° |
| 2026-05-07 03:40 | 23.06688 | 139.86738 | 37249 ft | 486 kts | 165° |
| 2026-05-07 03:41 | 23.00286 | 139.89042 | 37251 ft | 486 kts | 165° |
| 2026-05-07 03:41 | 22.93844 | 139.91357 | 37248 ft | 486 kts | 165° |
| 2026-05-07 03:42 | 22.87448 | 139.93654 | 37248 ft | 487 kts | 165° |
| 2026-05-07 03:42 | 22.81026 | 139.95958 | 37245 ft | 487 kts | 165° |
| 2026-05-07 03:43 | 22.74580 | 139.98269 | 37246 ft | 487 kts | 165° |
| 2026-05-07 03:43 | 22.68140 | 140.00575 | 37243 ft | 487 kts | 165° |
| 2026-05-07 03:44 | 22.61696 | 140.02880 | 37242 ft | 488 kts | 165° |
| 2026-05-07 03:44 | 22.55292 | 140.05168 | 37239 ft | 488 kts | 165° |
| 2026-05-07 03:45 | 22.48833 | 140.07473 | 37244 ft | 488 kts | 165° |
| 2026-05-07 03:45 | 22.42373 | 140.09777 | 37236 ft | 489 kts | 165° |
| 2026-05-07 03:46 | 22.35910 | 140.12080 | 37233 ft | 489 kts | 165° |
| 2026-05-07 03:46 | 22.29433 | 140.14385 | 37239 ft | 490 kts | 165° |
| 2026-05-07 03:47 | 22.22952 | 140.16690 | 37237 ft | 490 kts | 165° |
| 2026-05-07 03:47 | 22.16490 | 140.18986 | 37235 ft | 491 kts | 164° |
| 2026-05-07 03:48 | 22.09998 | 140.21289 | 37236 ft | 492 kts | 164° |
| 2026-05-07 03:48 | 22.03493 | 140.23596 | 37235 ft | 492 kts | 164° |
| 2026-05-07 03:49 | 21.96984 | 140.25901 | 37229 ft | 493 kts | 164° |
| 2026-05-07 03:49 | 21.90457 | 140.28211 | 37227 ft | 493 kts | 164° |
| 2026-05-07 03:50 | 21.83946 | 140.30513 | 37231 ft | 493 kts | 164° |
| 2026-05-07 03:50 | 21.77399 | 140.32825 | 37231 ft | 493 kts | 164° |
| 2026-05-07 03:51 | 21.70908 | 140.35116 | 37230 ft | 494 kts | 164° |
| 2026-05-07 03:51 | 21.64388 | 140.37414 | 37235 ft | 494 kts | 164° |
| 2026-05-07 03:52 | 21.57849 | 140.39717 | 37237 ft | 494 kts | 164° |
| 2026-05-07 03:52 | 21.51312 | 140.42017 | 37233 ft | 494 kts | 164° |
| 2026-05-07 03:53 | 21.44777 | 140.44315 | 37224 ft | 494 kts | 164° |
| 2026-05-07 03:53 | 21.38219 | 140.46617 | 37225 ft | 495 kts | 164° |
| 2026-05-07 03:54 | 21.31671 | 140.48915 | 37225 ft | 495 kts | 164° |
| 2026-05-07 03:54 | 21.25163 | 140.51197 | 37220 ft | 496 kts | 164° |
| 2026-05-07 03:55 | 21.18606 | 140.53493 | 37225 ft | 496 kts | 164° |
| 2026-05-07 03:55 | 21.12036 | 140.55792 | 37222 ft | 497 kts | 164° |
| 2026-05-07 03:56 | 21.05460 | 140.58092 | 37219 ft | 497 kts | 164° |
| 2026-05-07 03:56 | 20.98953 | 140.60624 | 37224 ft | 499 kts | 157° |
| 2026-05-07 03:57 | 20.92815 | 140.64177 | 37224 ft | 501 kts | 152° |
| 2026-05-07 03:57 | 20.86790 | 140.67860 | 37219 ft | 502 kts | 152° |
| 2026-05-07 03:58 | 20.80710 | 140.71545 | 37215 ft | 502 kts | 152° |
| 2026-05-07 03:58 | 20.74614 | 140.75199 | 37217 ft | 502 kts | 153° |
| 2026-05-07 03:59 | 20.68502 | 140.78848 | 37217 ft | 503 kts | 153° |
| 2026-05-07 03:59 | 20.62390 | 140.82491 | 37217 ft | 503 kts | 153° |
| 2026-05-07 04:00 | 20.56274 | 140.86137 | 37215 ft | 503 kts | 152° |
| 2026-05-07 04:00 | 20.50161 | 140.89778 | 37213 ft | 504 kts | 152° |
| 2026-05-07 04:01 | 20.44037 | 140.93423 | 37209 ft | 504 kts | 152° |
| 2026-05-07 04:01 | 20.37951 | 140.97041 | 37207 ft | 504 kts | 152° |
| 2026-05-07 04:02 | 20.31816 | 141.00686 | 37210 ft | 505 kts | 152° |
| 2026-05-07 04:02 | 20.25673 | 141.04332 | 37211 ft | 505 kts | 152° |
| 2026-05-07 04:03 | 20.19530 | 141.07974 | 37207 ft | 506 kts | 152° |
| 2026-05-07 04:03 | 20.13361 | 141.11628 | 37206 ft | 506 kts | 152° |
| 2026-05-07 04:04 | 20.07206 | 141.15271 | 37207 ft | 506 kts | 152° |
| 2026-05-07 04:04 | 20.01089 | 141.18889 | 37200 ft | 506 kts | 152° |
| 2026-05-07 04:05 | 19.94929 | 141.22528 | 37202 ft | 506 kts | 152° |
| 2026-05-07 04:05 | 19.88775 | 141.26161 | 37202 ft | 506 kts | 152° |
| 2026-05-07 04:06 | 19.82620 | 141.29790 | 37202 ft | 506 kts | 152° |
| 2026-05-07 04:06 | 19.76458 | 141.33421 | 37199 ft | 506 kts | 152° |
| 2026-05-07 04:07 | 19.70289 | 141.37052 | 37196 ft | 506 kts | 152° |
| 2026-05-07 04:07 | 19.64132 | 141.40674 | 37193 ft | 506 kts | 152° |
| 2026-05-07 04:08 | 19.58007 | 141.44273 | 37192 ft | 506 kts | 152° |
| 2026-05-07 04:08 | 19.51843 | 141.47892 | 37194 ft | 506 kts | 152° |
| 2026-05-07 04:09 | 19.45677 | 141.51509 | 37189 ft | 506 kts | 152° |
| 2026-05-07 04:09 | 19.39520 | 141.55118 | 37190 ft | 506 kts | 152° |
| 2026-05-07 04:10 | 19.33368 | 141.58721 | 37187 ft | 506 kts | 152° |
| 2026-05-07 04:10 | 19.27202 | 141.62328 | 37185 ft | 506 kts | 152° |
| 2026-05-07 04:11 | 19.22067 | 141.65330 | 37182 ft | 506 kts | 152° |
| 2026-05-07 04:11 | 19.15895 | 141.68935 | 37183 ft | 506 kts | 152° |
| 2026-05-07 04:12 | 19.09727 | 141.72536 | 37179 ft | 506 kts | 152° |
| 2026-05-07 04:12 | 19.03554 | 141.76135 | 37178 ft | 506 kts | 152° |
| 2026-05-07 04:13 | 18.97385 | 141.79729 | 37179 ft | 506 kts | 153° |
| 2026-05-07 04:13 | 18.91204 | 141.83328 | 37177 ft | 507 kts | 153° |
| 2026-05-07 04:14 | 18.85022 | 141.86923 | 37174 ft | 507 kts | 153° |
| 2026-05-07 04:14 | 18.78835 | 141.90519 | 37174 ft | 507 kts | 153° |
| 2026-05-07 04:15 | 18.72696 | 141.94084 | 37171 ft | 507 kts | 153° |
| 2026-05-07 04:15 | 18.66514 | 141.97671 | 37169 ft | 506 kts | 153° |
| 2026-05-07 04:16 | 18.60335 | 142.01252 | 37168 ft | 506 kts | 153° |
| 2026-05-07 04:16 | 18.54154 | 142.04832 | 37169 ft | 506 kts | 153° |
| 2026-05-07 04:17 | 18.47980 | 142.08405 | 37167 ft | 507 kts | 153° |
| 2026-05-07 04:17 | 18.41803 | 142.11977 | 37163 ft | 507 kts | 153° |
| 2026-05-07 04:18 | 18.35618 | 142.15551 | 37164 ft | 507 kts | 153° |
| 2026-05-07 04:18 | 18.29437 | 142.19119 | 37162 ft | 507 kts | 153° |
| 2026-05-07 04:19 | 18.23230 | 142.22699 | 37160 ft | 508 kts | 153° |
| 2026-05-07 04:19 | 18.17068 | 142.26251 | 37160 ft | 508 kts | 153° |
| 2026-05-07 04:20 | 18.10867 | 142.29821 | 37158 ft | 509 kts | 153° |
| 2026-05-07 04:20 | 18.04649 | 142.33400 | 37161 ft | 509 kts | 153° |
| 2026-05-07 04:21 | 17.95315 | 142.38765 | 37158 ft | 509 kts | 153° |
| 2026-05-07 04:21 | 17.89093 | 142.42338 | 37154 ft | 510 kts | 153° |
| 2026-05-07 04:22 | 17.82887 | 142.45899 | 37154 ft | 510 kts | 153° |
| 2026-05-07 04:22 | 17.76637 | 142.49483 | 37152 ft | 510 kts | 153° |
| 2026-05-07 04:23 | 17.70448 | 142.53028 | 37151 ft | 510 kts | 153° |
| 2026-05-07 04:23 | 17.64212 | 142.56597 | 37152 ft | 510 kts | 153° |
| 2026-05-07 04:24 | 17.57974 | 142.60165 | 37144 ft | 511 kts | 153° |
| 2026-05-07 04:24 | 17.51711 | 142.63744 | 37150 ft | 513 kts | 153° |
| 2026-05-07 04:25 | 17.45438 | 142.67326 | 37148 ft | 514 kts | 153° |
| 2026-05-07 04:25 | 17.39149 | 142.70915 | 37145 ft | 515 kts | 153° |
| 2026-05-07 04:26 | 17.32901 | 142.74479 | 37145 ft | 516 kts | 153° |
| 2026-05-07 04:26 | 17.26575 | 142.78083 | 37143 ft | 516 kts | 153° |
| 2026-05-07 04:27 | 17.20268 | 142.81675 | 37137 ft | 516 kts | 153° |
| 2026-05-07 04:27 | 17.13898 | 142.85143 | 37135 ft | 515 kts | 155° |
| 2026-05-07 04:28 | 17.07471 | 142.88457 | 37136 ft | 514 kts | 156° |
| 2026-05-07 04:28 | 17.01083 | 142.91752 | 37139 ft | 514 kts | 156° |
| 2026-05-07 04:29 | 16.94681 | 142.95086 | 37138 ft | 514 kts | 155° |
| 2026-05-07 04:29 | 16.88279 | 142.98433 | 37136 ft | 514 kts | 155° |
| 2026-05-07 04:30 | 16.81879 | 143.01779 | 37135 ft | 514 kts | 155° |
| 2026-05-07 04:30 | 16.75486 | 143.05116 | 37132 ft | 514 kts | 155° |
| 2026-05-07 04:31 | 16.69099 | 143.08446 | 37130 ft | 514 kts | 155° |
| 2026-05-07 04:31 | 16.62703 | 143.11778 | 37129 ft | 513 kts | 155° |
| 2026-05-07 04:32 | 16.56309 | 143.15106 | 37125 ft | 513 kts | 155° |
| 2026-05-07 04:32 | 16.49920 | 143.18430 | 37129 ft | 514 kts | 155° |
| 2026-05-07 04:33 | 16.43514 | 143.21760 | 37124 ft | 514 kts | 155° |
| 2026-05-07 04:33 | 16.37106 | 143.25089 | 37124 ft | 514 kts | 155° |
| 2026-05-07 04:34 | 16.30744 | 143.28391 | 37120 ft | 514 kts | 155° |
| 2026-05-07 04:34 | 16.24341 | 143.31712 | 37120 ft | 514 kts | 155° |
| 2026-05-07 04:35 | 16.17943 | 143.35028 | 37118 ft | 513 kts | 155° |
| 2026-05-07 04:35 | 16.11531 | 143.38349 | 37116 ft | 513 kts | 155° |
| 2026-05-07 04:36 | 16.05127 | 143.41664 | 37116 ft | 513 kts | 155° |
| 2026-05-07 04:36 | 15.98785 | 143.44944 | 37115 ft | 513 kts | 155° |
| 2026-05-07 04:37 | 15.92374 | 143.48257 | 37115 ft | 513 kts | 155° |
| 2026-05-07 04:37 | 15.85984 | 143.51557 | 37113 ft | 513 kts | 155° |
| 2026-05-07 04:38 | 15.79596 | 143.54853 | 37109 ft | 513 kts | 156° |
| 2026-05-07 04:38 | 15.73194 | 143.58155 | 37107 ft | 513 kts | 156° |
| 2026-05-07 04:39 | 15.66798 | 143.61451 | 37107 ft | 513 kts | 156° |
| 2026-05-07 04:39 | 15.60396 | 143.64748 | 37107 ft | 513 kts | 156° |
| 2026-05-07 04:40 | 15.53998 | 143.68040 | 37107 ft | 513 kts | 156° |
| 2026-05-07 04:40 | 15.47603 | 143.71329 | 37105 ft | 513 kts | 156° |
| 2026-05-07 04:41 | 15.41243 | 143.74598 | 37104 ft | 513 kts | 156° |
| 2026-05-07 04:41 | 15.34853 | 143.77879 | 37101 ft | 513 kts | 156° |
| 2026-05-07 04:42 | 15.28448 | 143.81166 | 37102 ft | 513 kts | 156° |
| 2026-05-07 04:42 | 15.22056 | 143.84445 | 37103 ft | 513 kts | 156° |
| 2026-05-07 04:43 | 15.15655 | 143.87726 | 37097 ft | 512 kts | 156° |
| 2026-05-07 04:43 | 15.09267 | 143.90998 | 37096 ft | 512 kts | 156° |
| 2026-05-07 04:44 | 15.02866 | 143.94275 | 37096 ft | 512 kts | 156° |
| 2026-05-07 04:44 | 14.96482 | 143.97541 | 37096 ft | 511 kts | 156° |
| 2026-05-07 04:45 | 14.90098 | 144.00787 | 37094 ft | 511 kts | 156° |
| 2026-05-07 04:45 | 14.83703 | 144.04011 | 37090 ft | 511 kts | 156° |
| 2026-05-07 04:46 | 14.77319 | 144.07228 | 37091 ft | 510 kts | 156° |
| 2026-05-07 04:46 | 14.70937 | 144.10446 | 37092 ft | 510 kts | 156° |
| 2026-05-07 04:47 | 14.64598 | 144.13643 | 37086 ft | 510 kts | 156° |
| 2026-05-07 04:47 | 14.58225 | 144.16855 | 37087 ft | 509 kts | 156° |
| 2026-05-07 04:48 | 14.51899 | 144.20041 | 37086 ft | 509 kts | 156° |
| 2026-05-07 04:48 | 14.45498 | 144.23263 | 37090 ft | 508 kts | 156° |
| 2026-05-07 04:49 | 14.39137 | 144.26462 | 37085 ft | 508 kts | 156° |
| 2026-05-07 04:49 | 14.32791 | 144.29652 | 37084 ft | 507 kts | 156° |
| 2026-05-07 04:50 | 14.26440 | 144.32842 | 37097 ft | 507 kts | 156° |
| 2026-05-07 04:50 | 14.20124 | 144.36013 | 37077 ft | 507 kts | 156° |
| 2026-05-07 04:51 | 14.13781 | 144.39196 | 37077 ft | 506 kts | 156° |
| 2026-05-07 04:51 | 14.07447 | 144.42373 | 37082 ft | 506 kts | 156° |
| 2026-05-07 04:52 | 14.01109 | 144.45548 | 37080 ft | 506 kts | 156° |
| 2026-05-07 04:52 | 13.95844 | 144.48186 | 37067 ft | 506 kts | 156° |
| 2026-05-07 04:53 | 13.89513 | 144.51356 | 37066 ft | 505 kts | 156° |
| 2026-05-07 04:53 | 13.83197 | 144.54518 | 37078 ft | 505 kts | 156° |
| 2026-05-07 04:54 | 13.80034 | 144.56100 | 37067 ft | 504 kts | 156° |
| 2026-05-07 04:54 | 13.76559 | 144.57840 | 37066 ft | 499 kts | 156° |
| 2026-05-07 04:55 | 13.73481 | 144.59384 | 37055 ft | 484 kts | 156° |
| 2026-05-07 04:55 | 13.70499 | 144.60884 | 37061 ft | 468 kts | 156° |
| 2026-05-07 04:55 | 13.67620 | 144.62338 | 37063 ft | 454 kts | 156° |
| 2026-05-07 04:55 | 13.64777 | 144.63776 | 37094 ft | 453 kts | 156° |
| 2026-05-07 04:56 | 13.59151 | 144.66622 | 37090 ft | 449 kts | 156° |
| 2026-05-07 04:56 | 13.53599 | 144.69432 | 37091 ft | 446 kts | 156° |
| 2026-05-07 04:57 | 13.48056 | 144.72239 | 37099 ft | 444 kts | 156° |
| 2026-05-07 04:57 | 13.42505 | 144.75050 | 37105 ft | 445 kts | 156° |
| 2026-05-07 04:58 | 13.37061 | 144.77804 | 37099 ft | 446 kts | 156° |
| 2026-05-07 04:58 | 13.31481 | 144.80626 | 37097 ft | 448 kts | 156° |
| 2026-05-07 04:59 | 13.25881 | 144.83456 | 37087 ft | 449 kts | 156° |
| 2026-05-07 04:59 | 13.20272 | 144.86289 | 37076 ft | 450 kts | 156° |
| 2026-05-07 05:00 | 13.14653 | 144.89126 | 37061 ft | 449 kts | 156° |
| 2026-05-07 05:00 | 13.09018 | 144.91970 | 37074 ft | 458 kts | 156° |
| 2026-05-07 05:01 | 13.03269 | 144.94861 | 37075 ft | 473 kts | 156° |
| 2026-05-07 05:01 | 12.97313 | 144.97846 | 37071 ft | 487 kts | 156° |
| 2026-05-07 05:02 | 12.91238 | 145.00883 | 37055 ft | 491 kts | 156° |
| 2026-05-07 05:02 | 12.85089 | 145.03957 | 37049 ft | 492 kts | 156° |
| 2026-05-07 05:03 | 12.78934 | 145.07031 | 37044 ft | 492 kts | 156° |
| 2026-05-07 05:03 | 12.72778 | 145.10103 | 37040 ft | 491 kts | 156° |
| 2026-05-07 05:04 | 12.66656 | 145.13159 | 37046 ft | 493 kts | 156° |
| 2026-05-07 05:04 | 12.60503 | 145.16231 | 37042 ft | 490 kts | 156° |
| 2026-05-07 05:05 | 12.54321 | 145.19319 | 37045 ft | 491 kts | 156° |
| 2026-05-07 05:05 | 12.48225 | 145.22361 | 37043 ft | 490 kts | 156° |
| 2026-05-07 05:06 | 12.42101 | 145.25418 | 37041 ft | 490 kts | 156° |
| 2026-05-07 05:06 | 12.35924 | 145.28500 | 37048 ft | 489 kts | 156° |
| 2026-05-07 05:07 | 12.29816 | 145.31545 | 37054 ft | 490 kts | 156° |
| 2026-05-07 05:07 | 12.23738 | 145.34572 | 37045 ft | 488 kts | 156° |
| 2026-05-07 05:08 | 12.17634 | 145.37614 | 37047 ft | 487 kts | 156° |
| 2026-05-07 05:08 | 12.11516 | 145.40659 | 37049 ft | 490 kts | 156° |
| 2026-05-07 05:09 | 12.05358 | 145.43726 | 37048 ft | 493 kts | 156° |
| 2026-05-07 05:09 | 11.99167 | 145.46805 | 37053 ft | 494 kts | 156° |
| 2026-05-07 05:10 | 11.92987 | 145.49877 | 37048 ft | 494 kts | 156° |
| 2026-05-07 05:10 | 11.86842 | 145.52930 | 37044 ft | 493 kts | 156° |
| 2026-05-07 05:11 | 11.80690 | 145.55987 | 37043 ft | 491 kts | 156° |
| 2026-05-07 05:11 | 11.74562 | 145.59038 | 37040 ft | 489 kts | 156° |
| 2026-05-07 05:12 | 11.68449 | 145.62077 | 37043 ft | 487 kts | 156° |
| 2026-05-07 05:12 | 11.62368 | 145.65102 | 37043 ft | 486 kts | 156° |
| 2026-05-07 05:13 | 11.56283 | 145.68129 | 37044 ft | 485 kts | 156° |
| 2026-05-07 05:13 | 11.50223 | 145.71144 | 37043 ft | 485 kts | 156° |
| 2026-05-07 05:14 | 11.44148 | 145.74170 | 37042 ft | 485 kts | 156° |
| 2026-05-07 05:14 | 11.38084 | 145.77192 | 37040 ft | 486 kts | 156° |
| 2026-05-07 05:15 | 11.32087 | 145.80179 | 37039 ft | 487 kts | 156° |
| 2026-05-07 05:15 | 11.26123 | 145.83145 | 37045 ft | 488 kts | 155° |
| 2026-05-07 05:16 | 11.23097 | 145.84648 | 36876 ft | 493 kts | 155° |
| 2026-05-07 05:16 | 11.19991 | 145.86187 | 36213 ft | 498 kts | 156° |
| 2026-05-07 05:16 | 11.17489 | 145.87121 | 35660 ft | 495 kts | 169° |
| 2026-05-07 05:16 | 11.14277 | 145.87356 | 34993 ft | 490 kts | 187° |
| 2026-05-07 05:17 | 11.10993 | 145.86608 | 34382 ft | 484 kts | 203° |
| 2026-05-07 05:17 | 11.07980 | 145.85062 | 33750 ft | 479 kts | 217° |
| 2026-05-07 05:17 | 11.05454 | 145.82895 | 33045 ft | 474 kts | 230° |
| 2026-05-07 05:17 | 11.03527 | 145.80178 | 32375 ft | 469 kts | 243° |
| 2026-05-07 05:18 | 11.02347 | 145.77117 | 31696 ft | 466 kts | 257° |
| 2026-05-07 05:18 | 11.01963 | 145.73886 | 31047 ft | 465 kts | 271° |
| 2026-05-07 05:18 | 11.02377 | 145.70633 | 30424 ft | 465 kts | 284° |
| 2026-05-07 05:18 | 11.03560 | 145.67580 | 29769 ft | 466 kts | 298° |
| 2026-05-07 05:19 | 11.05446 | 145.64904 | 29063 ft | 466 kts | 312° |
| 2026-05-07 05:19 | 11.07843 | 145.62676 | 28359 ft | 465 kts | 323° |
| 2026-05-07 05:19 | 11.10660 | 145.61096 | 27648 ft | 462 kts | 339° |
| 2026-05-07 05:19 | 11.13678 | 145.59990 | 27159 ft | 456 kts | 341° |
| 2026-05-07 05:20 | 11.16529 | 145.58988 | 26985 ft | 444 kts | 341° |
| 2026-05-07 05:20 | 11.19419 | 145.57972 | 26843 ft | 434 kts | 341° |
| 2026-05-07 05:20 | 11.22278 | 145.56955 | 26849 ft | 434 kts | 340° |
| 2026-05-07 05:20 | 11.25124 | 145.55927 | 26839 ft | 434 kts | 340° |
| 2026-05-07 05:21 | 11.27963 | 145.54888 | 26834 ft | 432 kts | 340° |
| 2026-05-07 05:21 | 11.33558 | 145.52818 | 26828 ft | 427 kts | 340° |
| 2026-05-07 05:21 | 11.36291 | 145.51801 | 26829 ft | 424 kts | 339° |
| 2026-05-07 05:22 | 11.39049 | 145.50774 | 26829 ft | 421 kts | 339° |
| 2026-05-07 05:22 | 11.41761 | 145.49764 | 26832 ft | 420 kts | 339° |
| 2026-05-07 05:22 | 11.44523 | 145.48735 | 26846 ft | 424 kts | 339° |
| 2026-05-07 05:22 | 11.47310 | 145.47697 | 26850 ft | 428 kts | 339° |
| 2026-05-07 05:23 | 11.50109 | 145.46654 | 26845 ft | 428 kts | 339° |
| 2026-05-07 05:23 | 11.52910 | 145.45611 | 26839 ft | 428 kts | 339° |
| 2026-05-07 05:23 | 11.55701 | 145.44571 | 26836 ft | 427 kts | 340° |
| 2026-05-07 05:23 | 11.58490 | 145.43532 | 26835 ft | 426 kts | 339° |
| 2026-05-07 05:24 | 11.61266 | 145.42498 | 26836 ft | 425 kts | 339° |
| 2026-05-07 05:24 | 11.63097 | 145.41815 | 26836 ft | 424 kts | 340° |
| 2026-05-07 05:24 | 11.64853 | 145.41161 | 26836 ft | 424 kts | 339° |
| 2026-05-07 05:24 | 11.67617 | 145.40130 | 26840 ft | 423 kts | 340° |
| 2026-05-07 05:25 | 11.70382 | 145.39099 | 26839 ft | 422 kts | 340° |
| 2026-05-07 05:25 | 11.73137 | 145.38071 | 26838 ft | 421 kts | 340° |
| 2026-05-07 05:25 | 11.75890 | 145.37044 | 26839 ft | 420 kts | 340° |
| 2026-05-07 05:25 | 11.78634 | 145.36020 | 26841 ft | 420 kts | 340° |
| 2026-05-07 05:26 | 11.81333 | 145.35013 | 26840 ft | 419 kts | 340° |
| 2026-05-07 05:26 | 11.84082 | 145.33986 | 26842 ft | 419 kts | 340° |
| 2026-05-07 05:26 | 11.86825 | 145.32962 | 26836 ft | 419 kts | 340° |
| 2026-05-07 05:26 | 11.89583 | 145.31932 | 26547 ft | 425 kts | 340° |
| 2026-05-07 05:27 | 11.92366 | 145.30892 | 26153 ft | 425 kts | 340° |
| 2026-05-07 05:27 | 11.94988 | 145.29912 | 25802 ft | 421 kts | 340° |
| 2026-05-07 05:27 | 11.97583 | 145.28943 | 25445 ft | 418 kts | 340° |
| 2026-05-07 05:27 | 12.00304 | 145.27925 | 25049 ft | 415 kts | 340° |
| 2026-05-07 05:28 | 12.03023 | 145.26909 | 24542 ft | 416 kts | 340° |
| 2026-05-07 05:28 | 12.05738 | 145.25893 | 24113 ft | 415 kts | 340° |
| 2026-05-07 05:28 | 12.08448 | 145.24880 | 23679 ft | 414 kts | 341° |
| 2026-05-07 05:28 | 12.11114 | 145.23882 | 23233 ft | 413 kts | 341° |
| 2026-05-07 05:29 | 12.13807 | 145.22874 | 22725 ft | 411 kts | 341° |
| 2026-05-07 05:29 | 12.16495 | 145.21868 | 22217 ft | 411 kts | 341° |
| 2026-05-07 05:29 | 12.19183 | 145.20861 | 21720 ft | 410 kts | 342° |
| 2026-05-07 05:29 | 12.21850 | 145.19862 | 21237 ft | 408 kts | 342° |
| 2026-05-07 05:30 | 12.24511 | 145.18865 | 20759 ft | 406 kts | 342° |
| 2026-05-07 05:30 | 12.27157 | 145.17875 | 20293 ft | 404 kts | 342° |
| 2026-05-07 05:30 | 12.29793 | 145.16888 | 19827 ft | 402 kts | 342° |
| 2026-05-07 05:30 | 12.32392 | 145.15914 | 19379 ft | 400 kts | 342° |
| 2026-05-07 05:31 | 12.35023 | 145.14927 | 18913 ft | 398 kts | 342° |
| 2026-05-07 05:31 | 12.37615 | 145.13955 | 18480 ft | 396 kts | 342° |
| 2026-05-07 05:31 | 12.40202 | 145.12984 | 18023 ft | 394 kts | 342° |
| 2026-05-07 05:31 | 12.42771 | 145.12021 | 17516 ft | 393 kts | 342° |
| 2026-05-07 05:32 | 12.45328 | 145.11062 | 17021 ft | 391 kts | 343° |
| 2026-05-07 05:32 | 12.47873 | 145.10107 | 16543 ft | 389 kts | 343° |
| 2026-05-07 05:32 | 12.50404 | 145.09157 | 16064 ft | 386 kts | 343° |
| 2026-05-07 05:32 | 12.52904 | 145.08219 | 15588 ft | 384 kts | 343° |
| 2026-05-07 05:33 | 12.55400 | 145.07281 | 15127 ft | 382 kts | 343° |
| 2026-05-07 05:33 | 12.57890 | 145.06345 | 14716 ft | 379 kts | 343° |
| 2026-05-07 05:33 | 12.60351 | 145.05420 | 14323 ft | 375 kts | 343° |
| 2026-05-07 05:33 | 12.62793 | 145.04502 | 13935 ft | 372 kts | 343° |
| 2026-05-07 05:34 | 12.65209 | 145.03594 | 13544 ft | 368 kts | 343° |
| 2026-05-07 05:34 | 12.67582 | 145.02702 | 13116 ft | 365 kts | 343° |
| 2026-05-07 05:34 | 12.69793 | 145.01871 | 12726 ft | 362 kts | 343° |
| 2026-05-07 05:34 | 12.70942 | 145.01439 | 12512 ft | 361 kts | 343° |
| 2026-05-07 05:35 | 12.73301 | 145.00552 | 12101 ft | 358 kts | 343° |
| 2026-05-07 05:35 | 12.75596 | 144.99689 | 11699 ft | 355 kts | 343° |
| 2026-05-07 05:35 | 12.77922 | 144.98814 | 11288 ft | 353 kts | 343° |
| 2026-05-07 05:35 | 12.80212 | 144.97952 | 10890 ft | 350 kts | 343° |
| 2026-05-07 05:36 | 12.82490 | 144.97095 | 10499 ft | 348 kts | 343° |
| 2026-05-07 05:36 | 12.84759 | 144.96241 | 10116 ft | 346 kts | 343° |
| 2026-05-07 05:36 | 12.87018 | 144.95391 | 9737 ft | 344 kts | 343° |
| 2026-05-07 05:36 | 12.89254 | 144.94549 | 9303 ft | 342 kts | 343° |
| 2026-05-07 05:37 | 12.91472 | 144.93714 | 8880 ft | 340 kts | 343° |
| 2026-05-07 05:37 | 12.93693 | 144.92878 | 8477 ft | 338 kts | 343° |
| 2026-05-07 05:37 | 12.95883 | 144.92052 | 8112 ft | 335 kts | 343° |
| 2026-05-07 05:37 | 12.98049 | 144.91236 | 7744 ft | 332 kts | 344° |
| 2026-05-07 05:38 | 12.99495 | 144.90691 | 7513 ft | 330 kts | 344° |
| 2026-05-07 05:38 | 13.01636 | 144.89883 | 7161 ft | 327 kts | 344° |
| 2026-05-07 05:38 | 13.03768 | 144.89079 | 6805 ft | 325 kts | 344° |
| 2026-05-07 05:38 | 13.05879 | 144.88283 | 6462 ft | 322 kts | 344° |
| 2026-05-07 05:39 | 13.07972 | 144.87494 | 6105 ft | 320 kts | 344° |
| 2026-05-07 05:39 | 13.10032 | 144.86716 | 5951 ft | 312 kts | 344° |
| 2026-05-07 05:39 | 13.12073 | 144.85941 | 5952 ft | 309 kts | 342° |
| 2026-05-07 05:39 | 13.13853 | 144.84772 | 5947 ft | 304 kts | 317° |
| 2026-05-07 05:40 | 13.14963 | 144.82985 | 5941 ft | 294 kts | 292° |
| 2026-05-07 05:40 | 13.15536 | 144.81000 | 5744 ft | 288 kts | 285° |
| 2026-05-07 05:40 | 13.15918 | 144.79338 | 5479 ft | 288 kts | 284° |
| 2026-05-07 05:40 | 13.16367 | 144.77306 | 5155 ft | 287 kts | 283° |
| 2026-05-07 05:41 | 13.16743 | 144.75599 | 4876 ft | 286 kts | 283° |
| 2026-05-07 05:41 | 13.17149 | 144.73746 | 4591 ft | 284 kts | 283° |
| 2026-05-07 05:41 | 13.17550 | 144.71913 | 4301 ft | 283 kts | 283° |
| 2026-05-07 05:41 | 13.17985 | 144.69911 | 4039 ft | 279 kts | 283° |
| 2026-05-07 05:42 | 13.18377 | 144.68089 | 3983 ft | 268 kts | 283° |
| 2026-05-07 05:42 | 13.18728 | 144.66440 | 3957 ft | 257 kts | 283° |
| 2026-05-07 05:42 | 13.19037 | 144.64976 | 3927 ft | 245 kts | 283° |
| 2026-05-07 05:42 | 13.19367 | 144.63387 | 3920 ft | 229 kts | 283° |
| 2026-05-07 05:43 | 13.19670 | 144.61905 | 3932 ft | 226 kts | 283° |
| 2026-05-07 05:43 | 13.19943 | 144.60592 | 3969 ft | 227 kts | 283° |
| 2026-05-07 05:43 | 13.20233 | 144.59207 | 3942 ft | 222 kts | 283° |
| 2026-05-07 05:43 | 13.20496 | 144.57948 | 3945 ft | 222 kts | 283° |
| 2026-05-07 05:44 | 13.20810 | 144.56441 | 3951 ft | 220 kts | 283° |
| 2026-05-07 05:44 | 13.21130 | 144.54898 | 3949 ft | 220 kts | 283° |
| 2026-05-07 05:44 | 13.21456 | 144.53367 | 3950 ft | 218 kts | 288° |
| 2026-05-07 05:44 | 13.22198 | 144.52046 | 3968 ft | 218 kts | 325° |
| 2026-05-07 05:45 | 13.23434 | 144.51292 | 4091 ft | 195 kts | 342° |
| 2026-05-07 05:45 | 13.24615 | 144.50762 | 4021 ft | 178 kts | 344° |
| 2026-05-07 05:45 | 13.25712 | 144.50271 | 3873 ft | 174 kts | 344° |
| 2026-05-07 05:45 | 13.26828 | 144.49774 | 3780 ft | 176 kts | 344° |
| 2026-05-07 05:46 | 13.27961 | 144.49274 | 3662 ft | 178 kts | 344° |
| 2026-05-07 05:46 | 13.29104 | 144.48824 | 3494 ft | 172 kts | 356° |
| 2026-05-07 05:46 | 13.30261 | 144.48775 | 3357 ft | 164 kts | 10° |
| 2026-05-07 05:46 | 13.31400 | 144.48843 | 3220 ft | 164 kts | 11° |
| 2026-05-07 05:47 | 13.32541 | 144.48917 | 3092 ft | 164 kts | 11° |
| 2026-05-07 05:47 | 13.33496 | 144.48978 | 3041 ft | 163 kts | 11° |
| 2026-05-07 05:47 | 13.34681 | 144.49058 | 2994 ft | 160 kts | 17° |
| 2026-05-07 05:47 | 13.35508 | 144.49477 | 2973 ft | 144 kts | 56° |
| 2026-05-07 05:48 | 13.35958 | 144.50337 | 2975 ft | 143 kts | 68° |
| 2026-05-07 05:48 | 13.36383 | 144.51213 | 2978 ft | 132 kts | 67° |
| 2026-05-07 05:48 | 13.36799 | 144.52040 | 2969 ft | 129 kts | 67° |
| 2026-05-07 05:48 | 13.37211 | 144.52860 | 2972 ft | 131 kts | 67° |
| 2026-05-07 05:49 | 13.37630 | 144.53699 | 2967 ft | 132 kts | 67° |
| 2026-05-07 05:49 | 13.38047 | 144.54542 | 2977 ft | 131 kts | 67° |
| 2026-05-07 05:49 | 13.38456 | 144.55383 | 2981 ft | 132 kts | 67° |
| 2026-05-07 05:49 | 13.38838 | 144.56221 | 2970 ft | 129 kts | 76° |
| 2026-05-07 05:50 | 13.38978 | 144.57114 | 2981 ft | 127 kts | 81° |
| 2026-05-07 05:50 | 13.39174 | 144.58006 | 2987 ft | 129 kts | 77° |
| 2026-05-07 05:50 | 13.39427 | 144.58902 | 2983 ft | 132 kts | 76° |
| 2026-05-07 05:50 | 13.39705 | 144.59812 | 2972 ft | 133 kts | 73° |
| 2026-05-07 05:51 | 13.40022 | 144.60705 | 2971 ft | 133 kts | 72° |
| 2026-05-07 05:51 | 13.40355 | 144.61585 | 2979 ft | 132 kts | 71° |
| 2026-05-07 05:51 | 13.40705 | 144.62461 | 2944 ft | 133 kts | 71° |
| 2026-05-07 05:51 | 13.41069 | 144.63331 | 2832 ft | 131 kts | 71° |
| 2026-05-07 05:52 | 13.41432 | 144.64177 | 2709 ft | 129 kts | 70° |
| 2026-05-07 05:52 | 13.41799 | 144.65009 | 2518 ft | 130 kts | 70° |
| 2026-05-07 05:52 | 13.42179 | 144.65865 | 2326 ft | 130 kts | 70° |
| 2026-05-07 05:52 | 13.42561 | 144.66715 | 2157 ft | 133 kts | 68° |
| 2026-05-07 05:53 | 13.42946 | 144.67552 | 2078 ft | 130 kts | 68° |
| 2026-05-07 05:53 | 13.43331 | 144.68392 | 2035 ft | 133 kts | 67° |
| 2026-05-07 05:53 | 13.43731 | 144.69266 | 1985 ft | 130 kts | 67° |
| 2026-05-07 05:53 | 13.44104 | 144.70088 | 1957 ft | 122 kts | 67° |
| 2026-05-07 05:54 | 13.44454 | 144.70879 | 1724 ft | 135 kts | 68° |
| 2026-05-07 05:54 | 13.44856 | 144.71732 | 1684 ft | 132 kts | 64° |
| 2026-05-07 05:54 | 13.45261 | 144.72598 | 1505 ft | 129 kts | 68° |
| 2026-05-07 05:54 | 13.45610 | 144.73390 | 1338 ft | 128 kts | 66° |
| 2026-05-07 05:55 | 13.45989 | 144.74224 | 1157 ft | 131 kts | 67° |
| 2026-05-07 05:55 | 13.46345 | 144.75005 | 1000 ft | 128 kts | 67° |
| 2026-05-07 05:55 | 13.46693 | 144.75772 | 840 ft | 125 kts | 66° |
| 2026-05-07 05:55 | 13.47078 | 144.76600 | 763 ft | 129 kts | 63° |
| 2026-05-07 05:56 | 13.47447 | 144.77432 | 581 ft | 129 kts | 65° |
| 2026-05-07 05:56 | 13.47786 | 144.78180 | 356 ft | 122 kts | 65° |
| 2026-05-07 05:56 | 13.48081 | 144.78819 | 329 ft | 128 kts | 65° |
| 2026-05-07 05:56 | 13.48379 | 144.79471 | 297 ft | 128 kts | 65° |
| 2026-05-07 05:57 | 13.48673 | 144.80103 | 302 ft | 101 kts | 65° |
| 2026-05-07 05:57 | 13.48850 | 144.80496 | 306 ft | 73 kts | 65° |
| 2026-05-07 05:57 | 13.48996 | 144.80800 | 308 ft | 39 kts | 64° |
| 2026-05-07 05:57 | 13.49068 | 144.80906 | 308 ft | 26 kts | 35° |
| 2026-05-07 05:58 | 13.49183 | 144.80968 | 309 ft | 26 kts | 21° |
| 2026-05-07 05:58 | 13.49301 | 144.80977 | 304 ft | 17 kts | 329° |
| 2026-05-07 05:58 | 13.49335 | 144.80958 | 306 ft | 0 kts | 341° |
| 2026-05-07 05:59 | 13.49340 | 144.80958 | 307 ft | 3 kts | 355° |
| 2026-05-07 05:59 | 13.49373 | 144.80956 | 306 ft | 6 kts | 340° |
| 2026-05-07 06:00 | 13.49383 | 144.80943 | 304 ft | 0 kts | 296° |